<?xml version="1.0" encoding="UTF-8" standalone="no" ?>
<gpx xmlns="http://www.topografix.com/GPX/1/1" xmlns:xsi="http://www.w3.org/2001/XMLSchema-instance" xsi:schemaLocation="http://www.topografix.com/GPX/1/1 http://www.topografix.com/GPX/1/1/gpx.xsd" version="1.1" creator="VisuGPX - https://www.visugpx.com">
  <metadata>
    <name>ROUSSAS</name>
    <desc><![CDATA[une belle randonnée à ROUSSAS]]></desc>
  </metadata>
  <trk>
    <name><![CDATA[Sequence 1]]></name>
    <trkseg>
      <trkpt lat="44.42875" lon="4.80204">
        <ele>111</ele>
        <time>2015-09-06T07:14:23Z</time>
      </trkpt>
      <trkpt lat="44.42882" lon="4.80197">
        <ele>113</ele>
        <time>2015-09-06T07:14:31Z</time>
      </trkpt>
      <trkpt lat="44.42886" lon="4.80189">
        <ele>115</ele>
        <time>2015-09-06T07:14:37Z</time>
      </trkpt>
      <trkpt lat="44.42893" lon="4.80177">
        <ele>117</ele>
        <time>2015-09-06T07:14:48Z</time>
      </trkpt>
      <trkpt lat="44.42899" lon="4.80161">
        <ele>120</ele>
        <time>2015-09-06T07:14:59Z</time>
      </trkpt>
      <trkpt lat="44.4291" lon="4.80141">
        <ele>122</ele>
        <time>2015-09-06T07:15:13Z</time>
      </trkpt>
      <trkpt lat="44.42916" lon="4.80132">
        <ele>123</ele>
        <time>2015-09-06T07:15:21Z</time>
      </trkpt>
      <trkpt lat="44.42922" lon="4.80121">
        <ele>122</ele>
        <time>2015-09-06T07:15:32Z</time>
      </trkpt>
      <trkpt lat="44.42919" lon="4.80101">
        <ele>123</ele>
        <time>2015-09-06T07:15:44Z</time>
      </trkpt>
      <trkpt lat="44.42907" lon="4.8009">
        <ele>121</ele>
        <time>2015-09-06T07:15:57Z</time>
      </trkpt>
      <trkpt lat="44.42899" lon="4.80083">
        <ele>123</ele>
        <time>2015-09-06T07:16:05Z</time>
      </trkpt>
      <trkpt lat="44.42876" lon="4.80077">
        <ele>133</ele>
        <time>2015-09-06T07:16:26Z</time>
      </trkpt>
      <trkpt lat="44.42873" lon="4.80077">
        <ele>133</ele>
        <time>2015-09-06T07:16:28Z</time>
      </trkpt>
      <trkpt lat="44.42865" lon="4.80076">
        <ele>132</ele>
        <time>2015-09-06T07:16:38Z</time>
      </trkpt>
      <trkpt lat="44.42855" lon="4.80071">
        <ele>125</ele>
        <time>2015-09-06T07:16:50Z</time>
      </trkpt>
      <trkpt lat="44.4284" lon="4.80064">
        <ele>124</ele>
        <time>2015-09-06T07:17:05Z</time>
      </trkpt>
      <trkpt lat="44.42833" lon="4.80062">
        <ele>122</ele>
        <time>2015-09-06T07:17:11Z</time>
      </trkpt>
      <trkpt lat="44.42814" lon="4.80058">
        <ele>120</ele>
        <time>2015-09-06T07:17:23Z</time>
      </trkpt>
      <trkpt lat="44.42796" lon="4.80056">
        <ele>122</ele>
        <time>2015-09-06T07:17:36Z</time>
      </trkpt>
      <trkpt lat="44.42786" lon="4.80055">
        <ele>123</ele>
        <time>2015-09-06T07:17:44Z</time>
      </trkpt>
      <trkpt lat="44.42773" lon="4.80051">
        <ele>121</ele>
        <time>2015-09-06T07:17:55Z</time>
      </trkpt>
      <trkpt lat="44.42756" lon="4.80048">
        <ele>121</ele>
        <time>2015-09-06T07:18:09Z</time>
      </trkpt>
      <trkpt lat="44.42731" lon="4.80057">
        <ele>126</ele>
        <time>2015-09-06T07:18:27Z</time>
      </trkpt>
      <trkpt lat="44.42723" lon="4.80057">
        <ele>127</ele>
        <time>2015-09-06T07:18:33Z</time>
      </trkpt>
      <trkpt lat="44.42712" lon="4.80054">
        <ele>121</ele>
        <time>2015-09-06T07:18:42Z</time>
      </trkpt>
      <trkpt lat="44.42696" lon="4.80044">
        <ele>120</ele>
        <time>2015-09-06T07:18:59Z</time>
      </trkpt>
      <trkpt lat="44.42695" lon="4.80043">
        <ele>120</ele>
        <time>2015-09-06T07:19:01Z</time>
      </trkpt>
      <trkpt lat="44.42687" lon="4.8003">
        <ele>119</ele>
        <time>2015-09-06T07:19:12Z</time>
      </trkpt>
      <trkpt lat="44.42682" lon="4.80016">
        <ele>116</ele>
        <time>2015-09-06T07:19:23Z</time>
      </trkpt>
      <trkpt lat="44.42675" lon="4.79997">
        <ele>115</ele>
        <time>2015-09-06T07:19:34Z</time>
      </trkpt>
      <trkpt lat="44.42671" lon="4.79982">
        <ele>117</ele>
        <time>2015-09-06T07:19:45Z</time>
      </trkpt>
      <trkpt lat="44.42676" lon="4.79963">
        <ele>121</ele>
        <time>2015-09-06T07:19:56Z</time>
      </trkpt>
      <trkpt lat="44.42686" lon="4.79946">
        <ele>124</ele>
        <time>2015-09-06T07:20:07Z</time>
      </trkpt>
      <trkpt lat="44.42694" lon="4.79931">
        <ele>123</ele>
        <time>2015-09-06T07:20:19Z</time>
      </trkpt>
      <trkpt lat="44.42701" lon="4.7992">
        <ele>123</ele>
        <time>2015-09-06T07:20:29Z</time>
      </trkpt>
      <trkpt lat="44.42705" lon="4.79906">
        <ele>125</ele>
        <time>2015-09-06T07:20:40Z</time>
      </trkpt>
      <trkpt lat="44.42712" lon="4.79894">
        <ele>126</ele>
        <time>2015-09-06T07:20:51Z</time>
      </trkpt>
      <trkpt lat="44.42715" lon="4.79879">
        <ele>124</ele>
        <time>2015-09-06T07:21:02Z</time>
      </trkpt>
      <trkpt lat="44.4272" lon="4.79853">
        <ele>127</ele>
        <time>2015-09-06T07:21:17Z</time>
      </trkpt>
      <trkpt lat="44.42721" lon="4.79846">
        <ele>128</ele>
        <time>2015-09-06T07:21:24Z</time>
      </trkpt>
      <trkpt lat="44.42723" lon="4.79833">
        <ele>128</ele>
        <time>2015-09-06T07:21:35Z</time>
      </trkpt>
      <trkpt lat="44.4273" lon="4.79806">
        <ele>126</ele>
        <time>2015-09-06T07:21:54Z</time>
      </trkpt>
      <trkpt lat="44.42729" lon="4.79803">
        <ele>127</ele>
        <time>2015-09-06T07:21:57Z</time>
      </trkpt>
      <trkpt lat="44.42735" lon="4.79791">
        <ele>127</ele>
        <time>2015-09-06T07:22:08Z</time>
      </trkpt>
      <trkpt lat="44.42739" lon="4.79773">
        <ele>127</ele>
        <time>2015-09-06T07:22:19Z</time>
      </trkpt>
      <trkpt lat="44.42744" lon="4.79753">
        <ele>130</ele>
        <time>2015-09-06T07:22:30Z</time>
      </trkpt>
      <trkpt lat="44.42754" lon="4.79719">
        <ele>134</ele>
        <time>2015-09-06T07:22:49Z</time>
      </trkpt>
      <trkpt lat="44.42755" lon="4.79714">
        <ele>134</ele>
        <time>2015-09-06T07:22:52Z</time>
      </trkpt>
      <trkpt lat="44.42769" lon="4.79693">
        <ele>128</ele>
        <time>2015-09-06T07:23:13Z</time>
      </trkpt>
      <trkpt lat="44.4277" lon="4.79693">
        <ele>128</ele>
        <time>2015-09-06T07:23:14Z</time>
      </trkpt>
      <trkpt lat="44.42783" lon="4.79698">
        <ele>126</ele>
        <time>2015-09-06T07:23:25Z</time>
      </trkpt>
      <trkpt lat="44.42798" lon="4.79701">
        <ele>128</ele>
        <time>2015-09-06T07:23:36Z</time>
      </trkpt>
      <trkpt lat="44.42813" lon="4.79703">
        <ele>129</ele>
        <time>2015-09-06T07:23:47Z</time>
      </trkpt>
      <trkpt lat="44.42832" lon="4.79691">
        <ele>133</ele>
        <time>2015-09-06T07:24:07Z</time>
      </trkpt>
      <trkpt lat="44.42833" lon="4.79689">
        <ele>133</ele>
        <time>2015-09-06T07:24:09Z</time>
      </trkpt>
      <trkpt lat="44.42842" lon="4.79686">
        <ele>135</ele>
        <time>2015-09-06T07:24:23Z</time>
      </trkpt>
      <trkpt lat="44.42848" lon="4.79704">
        <ele>129</ele>
        <time>2015-09-06T07:24:36Z</time>
      </trkpt>
      <trkpt lat="44.42855" lon="4.79718">
        <ele>131</ele>
        <time>2015-09-06T07:24:46Z</time>
      </trkpt>
      <trkpt lat="44.42861" lon="4.79735">
        <ele>134</ele>
        <time>2015-09-06T07:24:58Z</time>
      </trkpt>
      <trkpt lat="44.42867" lon="4.79749">
        <ele>132</ele>
        <time>2015-09-06T07:25:11Z</time>
      </trkpt>
      <trkpt lat="44.4287" lon="4.79752">
        <ele>131</ele>
        <time>2015-09-06T07:25:15Z</time>
      </trkpt>
      <trkpt lat="44.42877" lon="4.79758">
        <ele>133</ele>
        <time>2015-09-06T07:25:26Z</time>
      </trkpt>
      <trkpt lat="44.4288" lon="4.79761">
        <ele>133</ele>
        <time>2015-09-06T07:25:37Z</time>
      </trkpt>
      <trkpt lat="44.42882" lon="4.79763">
        <ele>134</ele>
        <time>2015-09-06T07:25:54Z</time>
      </trkpt>
      <trkpt lat="44.42882" lon="4.79763">
        <ele>134</ele>
        <time>2015-09-06T07:25:57Z</time>
      </trkpt>
      <trkpt lat="44.42882" lon="4.79763">
        <ele>134</ele>
        <time>2015-09-06T07:26:00Z</time>
      </trkpt>
      <trkpt lat="44.42882" lon="4.79763">
        <ele>134</ele>
        <time>2015-09-06T07:26:03Z</time>
      </trkpt>
      <trkpt lat="44.42882" lon="4.79767">
        <ele>132</ele>
        <time>2015-09-06T07:26:08Z</time>
      </trkpt>
      <trkpt lat="44.42881" lon="4.79803">
        <ele>138</ele>
        <time>2015-09-06T07:26:22Z</time>
      </trkpt>
      <trkpt lat="44.42886" lon="4.79806">
        <ele>138</ele>
        <time>2015-09-06T07:26:29Z</time>
      </trkpt>
      <trkpt lat="44.42895" lon="4.79788">
        <ele>143</ele>
        <time>2015-09-06T07:26:48Z</time>
      </trkpt>
      <trkpt lat="44.42904" lon="4.79777">
        <ele>145</ele>
        <time>2015-09-06T07:26:59Z</time>
      </trkpt>
      <trkpt lat="44.42911" lon="4.79765">
        <ele>143</ele>
        <time>2015-09-06T07:27:08Z</time>
      </trkpt>
      <trkpt lat="44.42917" lon="4.79753">
        <ele>147</ele>
        <time>2015-09-06T07:27:19Z</time>
      </trkpt>
      <trkpt lat="44.42919" lon="4.79747">
        <ele>148</ele>
        <time>2015-09-06T07:27:23Z</time>
      </trkpt>
      <trkpt lat="44.42926" lon="4.79735">
        <ele>149</ele>
        <time>2015-09-06T07:27:34Z</time>
      </trkpt>
      <trkpt lat="44.4294" lon="4.79716">
        <ele>149</ele>
        <time>2015-09-06T07:27:54Z</time>
      </trkpt>
      <trkpt lat="44.42941" lon="4.79714">
        <ele>148</ele>
        <time>2015-09-06T07:27:56Z</time>
      </trkpt>
      <trkpt lat="44.42955" lon="4.79691">
        <ele>152</ele>
        <time>2015-09-06T07:28:17Z</time>
      </trkpt>
      <trkpt lat="44.42955" lon="4.79689">
        <ele>153</ele>
        <time>2015-09-06T07:28:18Z</time>
      </trkpt>
      <trkpt lat="44.42972" lon="4.79672">
        <ele>153</ele>
        <time>2015-09-06T07:28:34Z</time>
      </trkpt>
      <trkpt lat="44.42978" lon="4.79665">
        <ele>154</ele>
        <time>2015-09-06T07:28:40Z</time>
      </trkpt>
      <trkpt lat="44.42993" lon="4.79647">
        <ele>156</ele>
        <time>2015-09-06T07:28:57Z</time>
      </trkpt>
      <trkpt lat="44.43001" lon="4.79634">
        <ele>155</ele>
        <time>2015-09-06T07:29:08Z</time>
      </trkpt>
      <trkpt lat="44.43005" lon="4.79628">
        <ele>152</ele>
        <time>2015-09-06T07:29:13Z</time>
      </trkpt>
      <trkpt lat="44.43014" lon="4.79612">
        <ele>151</ele>
        <time>2015-09-06T07:29:25Z</time>
      </trkpt>
      <trkpt lat="44.4302" lon="4.796">
        <ele>150</ele>
        <time>2015-09-06T07:29:35Z</time>
      </trkpt>
      <trkpt lat="44.43028" lon="4.79578">
        <ele>148</ele>
        <time>2015-09-06T07:29:50Z</time>
      </trkpt>
      <trkpt lat="44.43037" lon="4.79558">
        <ele>148</ele>
        <time>2015-09-06T07:30:05Z</time>
      </trkpt>
      <trkpt lat="44.43039" lon="4.79553">
        <ele>147</ele>
        <time>2015-09-06T07:30:09Z</time>
      </trkpt>
      <trkpt lat="44.43044" lon="4.79535">
        <ele>148</ele>
        <time>2015-09-06T07:30:20Z</time>
      </trkpt>
      <trkpt lat="44.43053" lon="4.79508">
        <ele>145</ele>
        <time>2015-09-06T07:30:39Z</time>
      </trkpt>
      <trkpt lat="44.43054" lon="4.79505">
        <ele>145</ele>
        <time>2015-09-06T07:30:41Z</time>
      </trkpt>
      <trkpt lat="44.43061" lon="4.79474">
        <ele>147</ele>
        <time>2015-09-06T07:30:59Z</time>
      </trkpt>
      <trkpt lat="44.43064" lon="4.7945">
        <ele>150</ele>
        <time>2015-09-06T07:31:13Z</time>
      </trkpt>
      <trkpt lat="44.43064" lon="4.79449">
        <ele>149</ele>
        <time>2015-09-06T07:31:14Z</time>
      </trkpt>
      <trkpt lat="44.43066" lon="4.79415">
        <ele>162</ele>
        <time>2015-09-06T07:31:30Z</time>
      </trkpt>
      <trkpt lat="44.43069" lon="4.79391">
        <ele>160</ele>
        <time>2015-09-06T07:31:44Z</time>
      </trkpt>
      <trkpt lat="44.43072" lon="4.79373">
        <ele>162</ele>
        <time>2015-09-06T07:31:56Z</time>
      </trkpt>
      <trkpt lat="44.43072" lon="4.7937">
        <ele>161</ele>
        <time>2015-09-06T07:31:58Z</time>
      </trkpt>
      <trkpt lat="44.43074" lon="4.79351">
        <ele>164</ele>
        <time>2015-09-06T07:32:09Z</time>
      </trkpt>
      <trkpt lat="44.4308" lon="4.79322">
        <ele>161</ele>
        <time>2015-09-06T07:32:30Z</time>
      </trkpt>
      <trkpt lat="44.43081" lon="4.79321">
        <ele>159</ele>
        <time>2015-09-06T07:32:32Z</time>
      </trkpt>
      <trkpt lat="44.43086" lon="4.79298">
        <ele>159</ele>
        <time>2015-09-06T07:32:51Z</time>
      </trkpt>
      <trkpt lat="44.43086" lon="4.79295">
        <ele>159</ele>
        <time>2015-09-06T07:32:53Z</time>
      </trkpt>
      <trkpt lat="44.43089" lon="4.7928">
        <ele>154</ele>
        <time>2015-09-06T07:33:04Z</time>
      </trkpt>
      <trkpt lat="44.43094" lon="4.79265">
        <ele>153</ele>
        <time>2015-09-06T07:33:15Z</time>
      </trkpt>
      <trkpt lat="44.43095" lon="4.79246">
        <ele>153</ele>
        <time>2015-09-06T07:33:26Z</time>
      </trkpt>
      <trkpt lat="44.43104" lon="4.79228">
        <ele>157</ele>
        <time>2015-09-06T07:33:37Z</time>
      </trkpt>
      <trkpt lat="44.43123" lon="4.79214">
        <ele>154</ele>
        <time>2015-09-06T07:33:56Z</time>
      </trkpt>
      <trkpt lat="44.43133" lon="4.79203">
        <ele>155</ele>
        <time>2015-09-06T07:34:05Z</time>
      </trkpt>
      <trkpt lat="44.43139" lon="4.79198">
        <ele>155</ele>
        <time>2015-09-06T07:34:10Z</time>
      </trkpt>
      <trkpt lat="44.43145" lon="4.79174">
        <ele>154</ele>
        <time>2015-09-06T07:34:25Z</time>
      </trkpt>
      <trkpt lat="44.43144" lon="4.79157">
        <ele>150</ele>
        <time>2015-09-06T07:34:36Z</time>
      </trkpt>
      <trkpt lat="44.43143" lon="4.79146">
        <ele>153</ele>
        <time>2015-09-06T07:34:43Z</time>
      </trkpt>
      <trkpt lat="44.43141" lon="4.79128">
        <ele>153</ele>
        <time>2015-09-06T07:34:54Z</time>
      </trkpt>
      <trkpt lat="44.43135" lon="4.79108">
        <ele>153</ele>
        <time>2015-09-06T07:35:08Z</time>
      </trkpt>
      <trkpt lat="44.43122" lon="4.79089">
        <ele>157</ele>
        <time>2015-09-06T07:35:22Z</time>
      </trkpt>
      <trkpt lat="44.43118" lon="4.79072">
        <ele>150</ele>
        <time>2015-09-06T07:35:36Z</time>
      </trkpt>
      <trkpt lat="44.43116" lon="4.79067">
        <ele>149</ele>
        <time>2015-09-06T07:35:40Z</time>
      </trkpt>
      <trkpt lat="44.43112" lon="4.79054">
        <ele>147</ele>
        <time>2015-09-06T07:35:49Z</time>
      </trkpt>
      <trkpt lat="44.43099" lon="4.79036">
        <ele>149</ele>
        <time>2015-09-06T07:36:03Z</time>
      </trkpt>
      <trkpt lat="44.4309" lon="4.79022">
        <ele>145</ele>
        <time>2015-09-06T07:36:13Z</time>
      </trkpt>
      <trkpt lat="44.43078" lon="4.79003">
        <ele>145</ele>
        <time>2015-09-06T07:36:27Z</time>
      </trkpt>
      <trkpt lat="44.43073" lon="4.78993">
        <ele>146</ele>
        <time>2015-09-06T07:36:34Z</time>
      </trkpt>
      <trkpt lat="44.43065" lon="4.78974">
        <ele>147</ele>
        <time>2015-09-06T07:36:49Z</time>
      </trkpt>
      <trkpt lat="44.43065" lon="4.78971">
        <ele>146</ele>
        <time>2015-09-06T07:36:55Z</time>
      </trkpt>
      <trkpt lat="44.43077" lon="4.78938">
        <ele>143</ele>
        <time>2015-09-06T07:37:14Z</time>
      </trkpt>
      <trkpt lat="44.43086" lon="4.78923">
        <ele>144</ele>
        <time>2015-09-06T07:37:25Z</time>
      </trkpt>
      <trkpt lat="44.43094" lon="4.78913">
        <ele>144</ele>
        <time>2015-09-06T07:37:33Z</time>
      </trkpt>
      <trkpt lat="44.43107" lon="4.78898">
        <ele>144</ele>
        <time>2015-09-06T07:37:45Z</time>
      </trkpt>
      <trkpt lat="44.43115" lon="4.78892">
        <ele>144</ele>
        <time>2015-09-06T07:37:53Z</time>
      </trkpt>
      <trkpt lat="44.43123" lon="4.78884">
        <ele>146</ele>
        <time>2015-09-06T07:38:01Z</time>
      </trkpt>
      <trkpt lat="44.43141" lon="4.78866">
        <ele>147</ele>
        <time>2015-09-06T07:38:19Z</time>
      </trkpt>
      <trkpt lat="44.43144" lon="4.78859">
        <ele>146</ele>
        <time>2015-09-06T07:38:25Z</time>
      </trkpt>
      <trkpt lat="44.4313" lon="4.78859">
        <ele>138</ele>
        <time>2015-09-06T07:38:42Z</time>
      </trkpt>
      <trkpt lat="44.43127" lon="4.78859">
        <ele>138</ele>
        <time>2015-09-06T07:38:45Z</time>
      </trkpt>
      <trkpt lat="44.43108" lon="4.78853">
        <ele>133</ele>
        <time>2015-09-06T07:39:04Z</time>
      </trkpt>
      <trkpt lat="44.43103" lon="4.78854">
        <ele>132</ele>
        <time>2015-09-06T07:39:08Z</time>
      </trkpt>
      <trkpt lat="44.43085" lon="4.78849">
        <ele>131</ele>
        <time>2015-09-06T07:39:24Z</time>
      </trkpt>
      <trkpt lat="44.43078" lon="4.7885">
        <ele>131</ele>
        <time>2015-09-06T07:39:31Z</time>
      </trkpt>
      <trkpt lat="44.43064" lon="4.78851">
        <ele>132</ele>
        <time>2015-09-06T07:39:45Z</time>
      </trkpt>
      <trkpt lat="44.4305" lon="4.78845">
        <ele>130</ele>
        <time>2015-09-06T07:39:53Z</time>
      </trkpt>
      <trkpt lat="44.43032" lon="4.78836">
        <ele>129</ele>
        <time>2015-09-06T07:40:05Z</time>
      </trkpt>
      <trkpt lat="44.43019" lon="4.78831">
        <ele>128</ele>
        <time>2015-09-06T07:40:16Z</time>
      </trkpt>
      <trkpt lat="44.43009" lon="4.78825">
        <ele>128</ele>
        <time>2015-09-06T07:40:27Z</time>
      </trkpt>
      <trkpt lat="44.43" lon="4.78822">
        <ele>128</ele>
        <time>2015-09-06T07:40:35Z</time>
      </trkpt>
      <trkpt lat="44.42985" lon="4.78818">
        <ele>129</ele>
        <time>2015-09-06T07:40:46Z</time>
      </trkpt>
      <trkpt lat="44.4297" lon="4.78815">
        <ele>126</ele>
        <time>2015-09-06T07:40:57Z</time>
      </trkpt>
      <trkpt lat="44.42957" lon="4.78813">
        <ele>127</ele>
        <time>2015-09-06T07:41:08Z</time>
      </trkpt>
      <trkpt lat="44.42943" lon="4.78807">
        <ele>125</ele>
        <time>2015-09-06T07:41:20Z</time>
      </trkpt>
      <trkpt lat="44.42933" lon="4.78785">
        <ele>124</ele>
        <time>2015-09-06T07:41:35Z</time>
      </trkpt>
      <trkpt lat="44.42936" lon="4.78774">
        <ele>124</ele>
        <time>2015-09-06T07:41:41Z</time>
      </trkpt>
      <trkpt lat="44.42941" lon="4.78736">
        <ele>132</ele>
        <time>2015-09-06T07:42:02Z</time>
      </trkpt>
      <trkpt lat="44.42935" lon="4.78731">
        <ele>132</ele>
        <time>2015-09-06T07:42:08Z</time>
      </trkpt>
      <trkpt lat="44.42925" lon="4.78727">
        <ele>131</ele>
        <time>2015-09-06T07:42:15Z</time>
      </trkpt>
      <trkpt lat="44.42905" lon="4.78722">
        <ele>130</ele>
        <time>2015-09-06T07:42:32Z</time>
      </trkpt>
      <trkpt lat="44.42899" lon="4.78721">
        <ele>129</ele>
        <time>2015-09-06T07:42:37Z</time>
      </trkpt>
      <trkpt lat="44.42888" lon="4.78721">
        <ele>128</ele>
        <time>2015-09-06T07:42:47Z</time>
      </trkpt>
      <trkpt lat="44.42874" lon="4.78718">
        <ele>129</ele>
        <time>2015-09-06T07:42:59Z</time>
      </trkpt>
      <trkpt lat="44.42862" lon="4.78712">
        <ele>130</ele>
        <time>2015-09-06T07:43:09Z</time>
      </trkpt>
      <trkpt lat="44.42844" lon="4.78697">
        <ele>129</ele>
        <time>2015-09-06T07:43:27Z</time>
      </trkpt>
      <trkpt lat="44.42833" lon="4.78681">
        <ele>126</ele>
        <time>2015-09-06T07:43:39Z</time>
      </trkpt>
      <trkpt lat="44.42821" lon="4.78666">
        <ele>124</ele>
        <time>2015-09-06T07:43:52Z</time>
      </trkpt>
      <trkpt lat="44.4282" lon="4.78665">
        <ele>124</ele>
        <time>2015-09-06T07:43:53Z</time>
      </trkpt>
      <trkpt lat="44.42807" lon="4.78656">
        <ele>126</ele>
        <time>2015-09-06T07:44:04Z</time>
      </trkpt>
      <trkpt lat="44.42792" lon="4.78644">
        <ele>125</ele>
        <time>2015-09-06T07:44:18Z</time>
      </trkpt>
      <trkpt lat="44.42785" lon="4.7864">
        <ele>124</ele>
        <time>2015-09-06T07:44:26Z</time>
      </trkpt>
      <trkpt lat="44.42774" lon="4.78636">
        <ele>121</ele>
        <time>2015-09-06T07:44:37Z</time>
      </trkpt>
      <trkpt lat="44.42756" lon="4.78622">
        <ele>118</ele>
        <time>2015-09-06T07:44:54Z</time>
      </trkpt>
      <trkpt lat="44.42751" lon="4.78619">
        <ele>117</ele>
        <time>2015-09-06T07:44:59Z</time>
      </trkpt>
      <trkpt lat="44.42739" lon="4.78609">
        <ele>114</ele>
        <time>2015-09-06T07:45:16Z</time>
      </trkpt>
      <trkpt lat="44.42737" lon="4.78607">
        <ele>117</ele>
        <time>2015-09-06T07:45:27Z</time>
      </trkpt>
      <trkpt lat="44.42737" lon="4.78607">
        <ele>117</ele>
        <time>2015-09-06T07:45:32Z</time>
      </trkpt>
      <trkpt lat="44.42738" lon="4.78606">
        <ele>117</ele>
        <time>2015-09-06T07:45:35Z</time>
      </trkpt>
      <trkpt lat="44.42738" lon="4.78606">
        <ele>117</ele>
        <time>2015-09-06T07:45:38Z</time>
      </trkpt>
      <trkpt lat="44.42738" lon="4.78606">
        <ele>117</ele>
        <time>2015-09-06T07:45:41Z</time>
      </trkpt>
      <trkpt lat="44.42739" lon="4.78606">
        <ele>117</ele>
        <time>2015-09-06T07:45:44Z</time>
      </trkpt>
      <trkpt lat="44.42753" lon="4.78601">
        <ele>115</ele>
        <time>2015-09-06T07:45:55Z</time>
      </trkpt>
      <trkpt lat="44.42781" lon="4.78593">
        <ele>118</ele>
        <time>2015-09-06T07:46:14Z</time>
      </trkpt>
      <trkpt lat="44.42786" lon="4.78593">
        <ele>121</ele>
        <time>2015-09-06T07:46:17Z</time>
      </trkpt>
      <trkpt lat="44.42803" lon="4.7859">
        <ele>124</ele>
        <time>2015-09-06T07:46:30Z</time>
      </trkpt>
      <trkpt lat="44.42814" lon="4.7859">
        <ele>127</ele>
        <time>2015-09-06T07:46:39Z</time>
      </trkpt>
      <trkpt lat="44.42834" lon="4.78593">
        <ele>124</ele>
        <time>2015-09-06T07:47:00Z</time>
      </trkpt>
      <trkpt lat="44.42845" lon="4.786">
        <ele>129</ele>
        <time>2015-09-06T07:47:09Z</time>
      </trkpt>
      <trkpt lat="44.42849" lon="4.78603">
        <ele>126</ele>
        <time>2015-09-06T07:47:13Z</time>
      </trkpt>
      <trkpt lat="44.42857" lon="4.78596">
        <ele>125</ele>
        <time>2015-09-06T07:47:23Z</time>
      </trkpt>
      <trkpt lat="44.42855" lon="4.78592">
        <ele>125</ele>
        <time>2015-09-06T07:47:34Z</time>
      </trkpt>
      <trkpt lat="44.42852" lon="4.78587">
        <ele>124</ele>
        <time>2015-09-06T07:47:45Z</time>
      </trkpt>
      <trkpt lat="44.42847" lon="4.78583">
        <ele>124</ele>
        <time>2015-09-06T07:47:57Z</time>
      </trkpt>
      <trkpt lat="44.42837" lon="4.7858">
        <ele>120</ele>
        <time>2015-09-06T07:48:07Z</time>
      </trkpt>
      <trkpt lat="44.42826" lon="4.78575">
        <ele>119</ele>
        <time>2015-09-06T07:48:18Z</time>
      </trkpt>
      <trkpt lat="44.42824" lon="4.7856">
        <ele>119</ele>
        <time>2015-09-06T07:48:38Z</time>
      </trkpt>
      <trkpt lat="44.42825" lon="4.78558">
        <ele>120</ele>
        <time>2015-09-06T07:48:40Z</time>
      </trkpt>
      <trkpt lat="44.42838" lon="4.78552">
        <ele>123</ele>
        <time>2015-09-06T07:48:54Z</time>
      </trkpt>
      <trkpt lat="44.42847" lon="4.78551">
        <ele>124</ele>
        <time>2015-09-06T07:49:07Z</time>
      </trkpt>
      <trkpt lat="44.42854" lon="4.78552">
        <ele>127</ele>
        <time>2015-09-06T07:49:14Z</time>
      </trkpt>
      <trkpt lat="44.42873" lon="4.78555">
        <ele>129</ele>
        <time>2015-09-06T07:49:28Z</time>
      </trkpt>
      <trkpt lat="44.4288" lon="4.78557">
        <ele>132</ele>
        <time>2015-09-06T07:49:35Z</time>
      </trkpt>
      <trkpt lat="44.429" lon="4.78564">
        <ele>137</ele>
        <time>2015-09-06T07:49:55Z</time>
      </trkpt>
      <trkpt lat="44.42901" lon="4.78564">
        <ele>137</ele>
        <time>2015-09-06T07:49:57Z</time>
      </trkpt>
      <trkpt lat="44.4292" lon="4.78564">
        <ele>137</ele>
        <time>2015-09-06T07:50:12Z</time>
      </trkpt>
      <trkpt lat="44.42929" lon="4.78559">
        <ele>134</ele>
        <time>2015-09-06T07:50:19Z</time>
      </trkpt>
      <trkpt lat="44.42946" lon="4.78553">
        <ele>139</ele>
        <time>2015-09-06T07:50:31Z</time>
      </trkpt>
      <trkpt lat="44.42961" lon="4.7855">
        <ele>143</ele>
        <time>2015-09-06T07:50:47Z</time>
      </trkpt>
      <trkpt lat="44.42963" lon="4.7855">
        <ele>145</ele>
        <time>2015-09-06T07:50:52Z</time>
      </trkpt>
      <trkpt lat="44.42974" lon="4.78549">
        <ele>148</ele>
        <time>2015-09-06T07:51:03Z</time>
      </trkpt>
      <trkpt lat="44.42991" lon="4.78548">
        <ele>146</ele>
        <time>2015-09-06T07:51:14Z</time>
      </trkpt>
      <trkpt lat="44.43" lon="4.78546">
        <ele>145</ele>
        <time>2015-09-06T07:51:28Z</time>
      </trkpt>
      <trkpt lat="44.43007" lon="4.78544">
        <ele>146</ele>
        <time>2015-09-06T07:51:36Z</time>
      </trkpt>
      <trkpt lat="44.43023" lon="4.78536">
        <ele>149</ele>
        <time>2015-09-06T07:51:47Z</time>
      </trkpt>
      <trkpt lat="44.43033" lon="4.78522">
        <ele>151</ele>
        <time>2015-09-06T07:52:06Z</time>
      </trkpt>
      <trkpt lat="44.43032" lon="4.78523">
        <ele>151</ele>
        <time>2015-09-06T07:52:09Z</time>
      </trkpt>
      <trkpt lat="44.43025" lon="4.78518">
        <ele>148</ele>
        <time>2015-09-06T07:52:20Z</time>
      </trkpt>
      <trkpt lat="44.43016" lon="4.78514">
        <ele>146</ele>
        <time>2015-09-06T07:52:31Z</time>
      </trkpt>
      <trkpt lat="44.4301" lon="4.78508">
        <ele>143</ele>
        <time>2015-09-06T07:52:42Z</time>
      </trkpt>
      <trkpt lat="44.42997" lon="4.78501">
        <ele>145</ele>
        <time>2015-09-06T07:52:54Z</time>
      </trkpt>
      <trkpt lat="44.42975" lon="4.78486">
        <ele>148</ele>
        <time>2015-09-06T07:53:13Z</time>
      </trkpt>
      <trkpt lat="44.42965" lon="4.78484">
        <ele>149</ele>
        <time>2015-09-06T07:53:21Z</time>
      </trkpt>
      <trkpt lat="44.4296" lon="4.78483">
        <ele>148</ele>
        <time>2015-09-06T07:53:26Z</time>
      </trkpt>
      <trkpt lat="44.42949" lon="4.78478">
        <ele>149</ele>
        <time>2015-09-06T07:53:38Z</time>
      </trkpt>
      <trkpt lat="44.42938" lon="4.78472">
        <ele>148</ele>
        <time>2015-09-06T07:53:50Z</time>
      </trkpt>
      <trkpt lat="44.42928" lon="4.78468">
        <ele>147</ele>
        <time>2015-09-06T07:53:59Z</time>
      </trkpt>
      <trkpt lat="44.42919" lon="4.78466">
        <ele>149</ele>
        <time>2015-09-06T07:54:10Z</time>
      </trkpt>
      <trkpt lat="44.42911" lon="4.7846">
        <ele>149</ele>
        <time>2015-09-06T07:54:21Z</time>
      </trkpt>
      <trkpt lat="44.429" lon="4.78455">
        <ele>152</ele>
        <time>2015-09-06T07:54:34Z</time>
      </trkpt>
      <trkpt lat="44.42899" lon="4.78454">
        <ele>152</ele>
        <time>2015-09-06T07:54:43Z</time>
      </trkpt>
      <trkpt lat="44.42879" lon="4.78442">
        <ele>149</ele>
        <time>2015-09-06T07:55:00Z</time>
      </trkpt>
      <trkpt lat="44.42861" lon="4.78436">
        <ele>150</ele>
        <time>2015-09-06T07:55:13Z</time>
      </trkpt>
      <trkpt lat="44.42856" lon="4.78436">
        <ele>151</ele>
        <time>2015-09-06T07:55:19Z</time>
      </trkpt>
      <trkpt lat="44.42853" lon="4.78435">
        <ele>150</ele>
        <time>2015-09-06T07:55:27Z</time>
      </trkpt>
      <trkpt lat="44.42836" lon="4.78431">
        <ele>148</ele>
        <time>2015-09-06T07:55:38Z</time>
      </trkpt>
      <trkpt lat="44.42822" lon="4.78433">
        <ele>150</ele>
        <time>2015-09-06T07:55:49Z</time>
      </trkpt>
      <trkpt lat="44.4279" lon="4.7843">
        <ele>148</ele>
        <time>2015-09-06T07:56:09Z</time>
      </trkpt>
      <trkpt lat="44.42778" lon="4.78426">
        <ele>148</ele>
        <time>2015-09-06T07:56:17Z</time>
      </trkpt>
      <trkpt lat="44.42769" lon="4.78426">
        <ele>150</ele>
        <time>2015-09-06T07:56:24Z</time>
      </trkpt>
      <trkpt lat="44.42746" lon="4.78429">
        <ele>154</ele>
        <time>2015-09-06T07:56:39Z</time>
      </trkpt>
      <trkpt lat="44.42739" lon="4.7843">
        <ele>154</ele>
        <time>2015-09-06T07:56:44Z</time>
      </trkpt>
      <trkpt lat="44.42715" lon="4.78431">
        <ele>155</ele>
        <time>2015-09-06T07:57:03Z</time>
      </trkpt>
      <trkpt lat="44.42711" lon="4.78432">
        <ele>154</ele>
        <time>2015-09-06T07:57:06Z</time>
      </trkpt>
      <trkpt lat="44.42693" lon="4.78432">
        <ele>156</ele>
        <time>2015-09-06T07:57:21Z</time>
      </trkpt>
      <trkpt lat="44.42684" lon="4.78434">
        <ele>155</ele>
        <time>2015-09-06T07:57:28Z</time>
      </trkpt>
      <trkpt lat="44.42671" lon="4.78435">
        <ele>152</ele>
        <time>2015-09-06T07:57:40Z</time>
      </trkpt>
      <trkpt lat="44.42651" lon="4.78434">
        <ele>152</ele>
        <time>2015-09-06T07:57:59Z</time>
      </trkpt>
      <trkpt lat="44.42647" lon="4.78434">
        <ele>151</ele>
        <time>2015-09-06T07:58:03Z</time>
      </trkpt>
      <trkpt lat="44.42637" lon="4.78433">
        <ele>151</ele>
        <time>2015-09-06T07:58:12Z</time>
      </trkpt>
      <trkpt lat="44.42624" lon="4.78436">
        <ele>150</ele>
        <time>2015-09-06T07:58:23Z</time>
      </trkpt>
      <trkpt lat="44.42613" lon="4.78434">
        <ele>149</ele>
        <time>2015-09-06T07:58:34Z</time>
      </trkpt>
      <trkpt lat="44.426" lon="4.78434">
        <ele>148</ele>
        <time>2015-09-06T07:58:45Z</time>
      </trkpt>
      <trkpt lat="44.42586" lon="4.78434">
        <ele>149</ele>
        <time>2015-09-06T07:58:57Z</time>
      </trkpt>
      <trkpt lat="44.42571" lon="4.78433">
        <ele>148</ele>
        <time>2015-09-06T07:59:09Z</time>
      </trkpt>
      <trkpt lat="44.42552" lon="4.78429">
        <ele>150</ele>
        <time>2015-09-06T07:59:25Z</time>
      </trkpt>
      <trkpt lat="44.42546" lon="4.78429">
        <ele>150</ele>
        <time>2015-09-06T07:59:29Z</time>
      </trkpt>
      <trkpt lat="44.42531" lon="4.78428">
        <ele>150</ele>
        <time>2015-09-06T07:59:41Z</time>
      </trkpt>
      <trkpt lat="44.42518" lon="4.78427">
        <ele>149</ele>
        <time>2015-09-06T07:59:51Z</time>
      </trkpt>
      <trkpt lat="44.42505" lon="4.78426">
        <ele>149</ele>
        <time>2015-09-06T08:00:02Z</time>
      </trkpt>
      <trkpt lat="44.42489" lon="4.78419">
        <ele>151</ele>
        <time>2015-09-06T08:00:16Z</time>
      </trkpt>
      <trkpt lat="44.42477" lon="4.78409">
        <ele>152</ele>
        <time>2015-09-06T08:00:28Z</time>
      </trkpt>
      <trkpt lat="44.42469" lon="4.784">
        <ele>153</ele>
        <time>2015-09-06T08:00:36Z</time>
      </trkpt>
      <trkpt lat="44.4246" lon="4.78387">
        <ele>153</ele>
        <time>2015-09-06T08:00:47Z</time>
      </trkpt>
      <trkpt lat="44.4245" lon="4.78377">
        <ele>152</ele>
        <time>2015-09-06T08:00:58Z</time>
      </trkpt>
      <trkpt lat="44.42438" lon="4.78362">
        <ele>147</ele>
        <time>2015-09-06T08:01:12Z</time>
      </trkpt>
      <trkpt lat="44.4243" lon="4.78354">
        <ele>144</ele>
        <time>2015-09-06T08:01:21Z</time>
      </trkpt>
      <trkpt lat="44.42419" lon="4.78341">
        <ele>146</ele>
        <time>2015-09-06T08:01:33Z</time>
      </trkpt>
      <trkpt lat="44.42412" lon="4.78331">
        <ele>144</ele>
        <time>2015-09-06T08:01:43Z</time>
      </trkpt>
      <trkpt lat="44.42401" lon="4.78318">
        <ele>146</ele>
        <time>2015-09-06T08:01:54Z</time>
      </trkpt>
      <trkpt lat="44.42393" lon="4.78311">
        <ele>145</ele>
        <time>2015-09-06T08:02:03Z</time>
      </trkpt>
      <trkpt lat="44.42378" lon="4.78301">
        <ele>145</ele>
        <time>2015-09-06T08:02:17Z</time>
      </trkpt>
      <trkpt lat="44.42365" lon="4.78294">
        <ele>147</ele>
        <time>2015-09-06T08:02:27Z</time>
      </trkpt>
      <trkpt lat="44.42346" lon="4.78286">
        <ele>149</ele>
        <time>2015-09-06T08:02:44Z</time>
      </trkpt>
      <trkpt lat="44.42343" lon="4.78283">
        <ele>148</ele>
        <time>2015-09-06T08:02:47Z</time>
      </trkpt>
      <trkpt lat="44.42335" lon="4.78251">
        <ele>150</ele>
        <time>2015-09-06T08:03:08Z</time>
      </trkpt>
      <trkpt lat="44.42335" lon="4.78248">
        <ele>149</ele>
        <time>2015-09-06T08:03:10Z</time>
      </trkpt>
      <trkpt lat="44.42339" lon="4.78225">
        <ele>150</ele>
        <time>2015-09-06T08:03:24Z</time>
      </trkpt>
      <trkpt lat="44.42339" lon="4.78214">
        <ele>151</ele>
        <time>2015-09-06T08:03:31Z</time>
      </trkpt>
      <trkpt lat="44.42343" lon="4.78184">
        <ele>150</ele>
        <time>2015-09-06T08:03:48Z</time>
      </trkpt>
      <trkpt lat="44.42346" lon="4.78162">
        <ele>151</ele>
        <time>2015-09-06T08:04:02Z</time>
      </trkpt>
      <trkpt lat="44.42347" lon="4.78148">
        <ele>149</ele>
        <time>2015-09-06T08:04:12Z</time>
      </trkpt>
      <trkpt lat="44.42352" lon="4.7814">
        <ele>144</ele>
        <time>2015-09-06T08:04:19Z</time>
      </trkpt>
      <trkpt lat="44.42363" lon="4.7813">
        <ele>146</ele>
        <time>2015-09-06T08:04:31Z</time>
      </trkpt>
      <trkpt lat="44.42367" lon="4.78119">
        <ele>147</ele>
        <time>2015-09-06T08:04:39Z</time>
      </trkpt>
      <trkpt lat="44.42369" lon="4.78105">
        <ele>147</ele>
        <time>2015-09-06T08:04:48Z</time>
      </trkpt>
      <trkpt lat="44.4237" lon="4.78083">
        <ele>147</ele>
        <time>2015-09-06T08:05:02Z</time>
      </trkpt>
      <trkpt lat="44.42371" lon="4.78065">
        <ele>148</ele>
        <time>2015-09-06T08:05:13Z</time>
      </trkpt>
      <trkpt lat="44.42372" lon="4.78044">
        <ele>147</ele>
        <time>2015-09-06T08:05:26Z</time>
      </trkpt>
      <trkpt lat="44.42374" lon="4.78033">
        <ele>148</ele>
        <time>2015-09-06T08:05:32Z</time>
      </trkpt>
      <trkpt lat="44.42375" lon="4.78015">
        <ele>147</ele>
        <time>2015-09-06T08:05:43Z</time>
      </trkpt>
      <trkpt lat="44.42378" lon="4.77984">
        <ele>148</ele>
        <time>2015-09-06T08:06:04Z</time>
      </trkpt>
      <trkpt lat="44.42378" lon="4.77983">
        <ele>148</ele>
        <time>2015-09-06T08:06:05Z</time>
      </trkpt>
      <trkpt lat="44.4238" lon="4.77965">
        <ele>146</ele>
        <time>2015-09-06T08:06:16Z</time>
      </trkpt>
      <trkpt lat="44.42382" lon="4.77943">
        <ele>144</ele>
        <time>2015-09-06T08:06:30Z</time>
      </trkpt>
      <trkpt lat="44.42382" lon="4.77918">
        <ele>145</ele>
        <time>2015-09-06T08:06:45Z</time>
      </trkpt>
      <trkpt lat="44.42383" lon="4.77911">
        <ele>143</ele>
        <time>2015-09-06T08:06:49Z</time>
      </trkpt>
      <trkpt lat="44.42385" lon="4.7789">
        <ele>143</ele>
        <time>2015-09-06T08:07:01Z</time>
      </trkpt>
      <trkpt lat="44.42386" lon="4.77874">
        <ele>144</ele>
        <time>2015-09-06T08:07:11Z</time>
      </trkpt>
      <trkpt lat="44.42389" lon="4.77851">
        <ele>143</ele>
        <time>2015-09-06T08:07:24Z</time>
      </trkpt>
      <trkpt lat="44.42389" lon="4.77834">
        <ele>143</ele>
        <time>2015-09-06T08:07:33Z</time>
      </trkpt>
      <trkpt lat="44.42391" lon="4.77804">
        <ele>144</ele>
        <time>2015-09-06T08:07:51Z</time>
      </trkpt>
      <trkpt lat="44.42392" lon="4.77786">
        <ele>144</ele>
        <time>2015-09-06T08:08:02Z</time>
      </trkpt>
      <trkpt lat="44.42393" lon="4.7778">
        <ele>142</ele>
        <time>2015-09-06T08:08:06Z</time>
      </trkpt>
      <trkpt lat="44.42393" lon="4.7775">
        <ele>143</ele>
        <time>2015-09-06T08:08:23Z</time>
      </trkpt>
      <trkpt lat="44.42393" lon="4.77736">
        <ele>145</ele>
        <time>2015-09-06T08:08:31Z</time>
      </trkpt>
      <trkpt lat="44.42394" lon="4.77723">
        <ele>145</ele>
        <time>2015-09-06T08:08:39Z</time>
      </trkpt>
      <trkpt lat="44.42397" lon="4.77691">
        <ele>147</ele>
        <time>2015-09-06T08:08:58Z</time>
      </trkpt>
      <trkpt lat="44.42397" lon="4.77686">
        <ele>148</ele>
        <time>2015-09-06T08:09:01Z</time>
      </trkpt>
      <trkpt lat="44.42397" lon="4.7765">
        <ele>144</ele>
        <time>2015-09-06T08:09:22Z</time>
      </trkpt>
      <trkpt lat="44.42384" lon="4.77637">
        <ele>144</ele>
        <time>2015-09-06T08:09:33Z</time>
      </trkpt>
      <trkpt lat="44.42383" lon="4.77637">
        <ele>145</ele>
        <time>2015-09-06T08:09:34Z</time>
      </trkpt>
      <trkpt lat="44.42368" lon="4.77626">
        <ele>144</ele>
        <time>2015-09-06T08:09:47Z</time>
      </trkpt>
      <trkpt lat="44.42359" lon="4.77619">
        <ele>144</ele>
        <time>2015-09-06T08:09:56Z</time>
      </trkpt>
      <trkpt lat="44.42346" lon="4.77613">
        <ele>145</ele>
        <time>2015-09-06T08:10:07Z</time>
      </trkpt>
      <trkpt lat="44.42336" lon="4.77603">
        <ele>144</ele>
        <time>2015-09-06T08:10:18Z</time>
      </trkpt>
      <trkpt lat="44.42319" lon="4.77588">
        <ele>144</ele>
        <time>2015-09-06T08:10:38Z</time>
      </trkpt>
      <trkpt lat="44.42318" lon="4.77587">
        <ele>143</ele>
        <time>2015-09-06T08:10:40Z</time>
      </trkpt>
      <trkpt lat="44.42299" lon="4.77576">
        <ele>141</ele>
        <time>2015-09-06T08:10:59Z</time>
      </trkpt>
      <trkpt lat="44.42298" lon="4.7757">
        <ele>140</ele>
        <time>2015-09-06T08:11:02Z</time>
      </trkpt>
      <trkpt lat="44.42315" lon="4.77545">
        <ele>142</ele>
        <time>2015-09-06T08:11:19Z</time>
      </trkpt>
      <trkpt lat="44.42323" lon="4.77536">
        <ele>142</ele>
        <time>2015-09-06T08:11:27Z</time>
      </trkpt>
      <trkpt lat="44.42331" lon="4.7753">
        <ele>144</ele>
        <time>2015-09-06T08:11:35Z</time>
      </trkpt>
      <trkpt lat="44.42343" lon="4.77521">
        <ele>141</ele>
        <time>2015-09-06T08:11:46Z</time>
      </trkpt>
      <trkpt lat="44.42357" lon="4.77516">
        <ele>140</ele>
        <time>2015-09-06T08:11:57Z</time>
      </trkpt>
      <trkpt lat="44.42372" lon="4.77511">
        <ele>139</ele>
        <time>2015-09-06T08:12:10Z</time>
      </trkpt>
      <trkpt lat="44.42381" lon="4.77508">
        <ele>137</ele>
        <time>2015-09-06T08:12:19Z</time>
      </trkpt>
      <trkpt lat="44.42393" lon="4.77502">
        <ele>137</ele>
        <time>2015-09-06T08:12:30Z</time>
      </trkpt>
      <trkpt lat="44.42417" lon="4.77489">
        <ele>139</ele>
        <time>2015-09-06T08:12:49Z</time>
      </trkpt>
      <trkpt lat="44.42419" lon="4.77486">
        <ele>141</ele>
        <time>2015-09-06T08:12:51Z</time>
      </trkpt>
      <trkpt lat="44.42432" lon="4.77466">
        <ele>139</ele>
        <time>2015-09-06T08:13:09Z</time>
      </trkpt>
      <trkpt lat="44.42437" lon="4.77454">
        <ele>138</ele>
        <time>2015-09-06T08:13:17Z</time>
      </trkpt>
      <trkpt lat="44.42443" lon="4.77446">
        <ele>138</ele>
        <time>2015-09-06T08:13:24Z</time>
      </trkpt>
      <trkpt lat="44.42458" lon="4.77417">
        <ele>138</ele>
        <time>2015-09-06T08:13:46Z</time>
      </trkpt>
      <trkpt lat="44.42459" lon="4.77416">
        <ele>137</ele>
        <time>2015-09-06T08:13:47Z</time>
      </trkpt>
      <trkpt lat="44.42467" lon="4.77395">
        <ele>141</ele>
        <time>2015-09-06T08:14:00Z</time>
      </trkpt>
      <trkpt lat="44.42482" lon="4.7737">
        <ele>144</ele>
        <time>2015-09-06T08:14:19Z</time>
      </trkpt>
      <trkpt lat="44.42483" lon="4.77369">
        <ele>144</ele>
        <time>2015-09-06T08:14:20Z</time>
      </trkpt>
      <trkpt lat="44.425" lon="4.77347">
        <ele>139</ele>
        <time>2015-09-06T08:14:37Z</time>
      </trkpt>
      <trkpt lat="44.42503" lon="4.77341">
        <ele>139</ele>
        <time>2015-09-06T08:14:41Z</time>
      </trkpt>
      <trkpt lat="44.4251" lon="4.77324">
        <ele>139</ele>
        <time>2015-09-06T08:14:54Z</time>
      </trkpt>
      <trkpt lat="44.42518" lon="4.77307">
        <ele>139</ele>
        <time>2015-09-06T08:15:06Z</time>
      </trkpt>
      <trkpt lat="44.42526" lon="4.77295">
        <ele>137</ele>
        <time>2015-09-06T08:15:15Z</time>
      </trkpt>
      <trkpt lat="44.42533" lon="4.77282">
        <ele>135</ele>
        <time>2015-09-06T08:15:26Z</time>
      </trkpt>
      <trkpt lat="44.42539" lon="4.77267">
        <ele>136</ele>
        <time>2015-09-06T08:15:38Z</time>
      </trkpt>
      <trkpt lat="44.42547" lon="4.77253">
        <ele>138</ele>
        <time>2015-09-06T08:15:48Z</time>
      </trkpt>
      <trkpt lat="44.42556" lon="4.77239">
        <ele>136</ele>
        <time>2015-09-06T08:15:58Z</time>
      </trkpt>
      <trkpt lat="44.42569" lon="4.77219">
        <ele>139</ele>
        <time>2015-09-06T08:16:13Z</time>
      </trkpt>
      <trkpt lat="44.42577" lon="4.77206">
        <ele>140</ele>
        <time>2015-09-06T08:16:22Z</time>
      </trkpt>
      <trkpt lat="44.42584" lon="4.77194">
        <ele>140</ele>
        <time>2015-09-06T08:16:31Z</time>
      </trkpt>
      <trkpt lat="44.42605" lon="4.77186">
        <ele>138</ele>
        <time>2015-09-06T08:16:48Z</time>
      </trkpt>
      <trkpt lat="44.4261" lon="4.7719">
        <ele>138</ele>
        <time>2015-09-06T08:16:54Z</time>
      </trkpt>
      <trkpt lat="44.42617" lon="4.77209">
        <ele>135</ele>
        <time>2015-09-06T08:17:08Z</time>
      </trkpt>
      <trkpt lat="44.42622" lon="4.77218">
        <ele>136</ele>
        <time>2015-09-06T08:17:15Z</time>
      </trkpt>
      <trkpt lat="44.42631" lon="4.77236">
        <ele>137</ele>
        <time>2015-09-06T08:17:28Z</time>
      </trkpt>
      <trkpt lat="44.42636" lon="4.7725">
        <ele>136</ele>
        <time>2015-09-06T08:17:38Z</time>
      </trkpt>
      <trkpt lat="44.4264" lon="4.77262">
        <ele>134</ele>
        <time>2015-09-06T08:17:52Z</time>
      </trkpt>
      <trkpt lat="44.42644" lon="4.77276">
        <ele>136</ele>
        <time>2015-09-06T08:18:00Z</time>
      </trkpt>
      <trkpt lat="44.4265" lon="4.77292">
        <ele>135</ele>
        <time>2015-09-06T08:18:11Z</time>
      </trkpt>
      <trkpt lat="44.42655" lon="4.7731">
        <ele>138</ele>
        <time>2015-09-06T08:18:22Z</time>
      </trkpt>
      <trkpt lat="44.42661" lon="4.77326">
        <ele>138</ele>
        <time>2015-09-06T08:18:32Z</time>
      </trkpt>
      <trkpt lat="44.42673" lon="4.77344">
        <ele>137</ele>
        <time>2015-09-06T08:18:46Z</time>
      </trkpt>
      <trkpt lat="44.42683" lon="4.77368">
        <ele>137</ele>
        <time>2015-09-06T08:19:04Z</time>
      </trkpt>
      <trkpt lat="44.42684" lon="4.77371">
        <ele>138</ele>
        <time>2015-09-06T08:19:06Z</time>
      </trkpt>
      <trkpt lat="44.42691" lon="4.7739">
        <ele>140</ele>
        <time>2015-09-06T08:19:17Z</time>
      </trkpt>
      <trkpt lat="44.42699" lon="4.77402">
        <ele>140</ele>
        <time>2015-09-06T08:19:27Z</time>
      </trkpt>
      <trkpt lat="44.42707" lon="4.77419">
        <ele>140</ele>
        <time>2015-09-06T08:19:39Z</time>
      </trkpt>
      <trkpt lat="44.42712" lon="4.77442">
        <ele>142</ele>
        <time>2015-09-06T08:19:53Z</time>
      </trkpt>
      <trkpt lat="44.42715" lon="4.77453">
        <ele>144</ele>
        <time>2015-09-06T08:20:01Z</time>
      </trkpt>
      <trkpt lat="44.42723" lon="4.77469">
        <ele>144</ele>
        <time>2015-09-06T08:20:16Z</time>
      </trkpt>
      <trkpt lat="44.42739" lon="4.77493">
        <ele>144</ele>
        <time>2015-09-06T08:20:31Z</time>
      </trkpt>
      <trkpt lat="44.42741" lon="4.77496">
        <ele>143</ele>
        <time>2015-09-06T08:20:34Z</time>
      </trkpt>
      <trkpt lat="44.42753" lon="4.77491">
        <ele>143</ele>
        <time>2015-09-06T08:20:45Z</time>
      </trkpt>
      <trkpt lat="44.42768" lon="4.77491">
        <ele>143</ele>
        <time>2015-09-06T08:20:57Z</time>
      </trkpt>
      <trkpt lat="44.42779" lon="4.77493">
        <ele>144</ele>
        <time>2015-09-06T08:21:07Z</time>
      </trkpt>
      <trkpt lat="44.4279" lon="4.77482">
        <ele>145</ele>
        <time>2015-09-06T08:21:18Z</time>
      </trkpt>
      <trkpt lat="44.42787" lon="4.77466">
        <ele>147</ele>
        <time>2015-09-06T08:21:28Z</time>
      </trkpt>
      <trkpt lat="44.42788" lon="4.77448">
        <ele>145</ele>
        <time>2015-09-06T08:21:39Z</time>
      </trkpt>
      <trkpt lat="44.42789" lon="4.77431">
        <ele>146</ele>
        <time>2015-09-06T08:21:52Z</time>
      </trkpt>
      <trkpt lat="44.42788" lon="4.77416">
        <ele>146</ele>
        <time>2015-09-06T08:22:01Z</time>
      </trkpt>
      <trkpt lat="44.42789" lon="4.7739">
        <ele>143</ele>
        <time>2015-09-06T08:22:18Z</time>
      </trkpt>
      <trkpt lat="44.42789" lon="4.77379">
        <ele>141</ele>
        <time>2015-09-06T08:22:24Z</time>
      </trkpt>
      <trkpt lat="44.42789" lon="4.7736">
        <ele>141</ele>
        <time>2015-09-06T08:22:34Z</time>
      </trkpt>
      <trkpt lat="44.42787" lon="4.77332">
        <ele>143</ele>
        <time>2015-09-06T08:22:51Z</time>
      </trkpt>
      <trkpt lat="44.42787" lon="4.7732">
        <ele>145</ele>
        <time>2015-09-06T08:22:56Z</time>
      </trkpt>
      <trkpt lat="44.42786" lon="4.77299">
        <ele>144</ele>
        <time>2015-09-06T08:23:09Z</time>
      </trkpt>
      <trkpt lat="44.42787" lon="4.77274">
        <ele>142</ele>
        <time>2015-09-06T08:23:23Z</time>
      </trkpt>
      <trkpt lat="44.42787" lon="4.77249">
        <ele>141</ele>
        <time>2015-09-06T08:23:35Z</time>
      </trkpt>
      <trkpt lat="44.42786" lon="4.7723">
        <ele>142</ele>
        <time>2015-09-06T08:23:45Z</time>
      </trkpt>
      <trkpt lat="44.42786" lon="4.77221">
        <ele>143</ele>
        <time>2015-09-06T08:23:51Z</time>
      </trkpt>
      <trkpt lat="44.42785" lon="4.77205">
        <ele>144</ele>
        <time>2015-09-06T08:24:02Z</time>
      </trkpt>
      <trkpt lat="44.42786" lon="4.77188">
        <ele>142</ele>
        <time>2015-09-06T08:24:13Z</time>
      </trkpt>
      <trkpt lat="44.42793" lon="4.77175">
        <ele>141</ele>
        <time>2015-09-06T08:24:24Z</time>
      </trkpt>
      <trkpt lat="44.42804" lon="4.77166">
        <ele>142</ele>
        <time>2015-09-06T08:24:35Z</time>
      </trkpt>
      <trkpt lat="44.42817" lon="4.77157">
        <ele>141</ele>
        <time>2015-09-06T08:24:47Z</time>
      </trkpt>
      <trkpt lat="44.42829" lon="4.77146">
        <ele>141</ele>
        <time>2015-09-06T08:24:58Z</time>
      </trkpt>
      <trkpt lat="44.4284" lon="4.77139">
        <ele>140</ele>
        <time>2015-09-06T08:25:08Z</time>
      </trkpt>
      <trkpt lat="44.42864" lon="4.77136">
        <ele>141</ele>
        <time>2015-09-06T08:25:28Z</time>
      </trkpt>
      <trkpt lat="44.42866" lon="4.77137">
        <ele>140</ele>
        <time>2015-09-06T08:25:30Z</time>
      </trkpt>
      <trkpt lat="44.42872" lon="4.77145">
        <ele>139</ele>
        <time>2015-09-06T08:25:42Z</time>
      </trkpt>
      <trkpt lat="44.42876" lon="4.77157">
        <ele>141</ele>
        <time>2015-09-06T08:25:52Z</time>
      </trkpt>
      <trkpt lat="44.42885" lon="4.77174">
        <ele>140</ele>
        <time>2015-09-06T08:26:05Z</time>
      </trkpt>
      <trkpt lat="44.42902" lon="4.77203">
        <ele>142</ele>
        <time>2015-09-06T08:26:24Z</time>
      </trkpt>
      <trkpt lat="44.42903" lon="4.77204">
        <ele>142</ele>
        <time>2015-09-06T08:26:25Z</time>
      </trkpt>
      <trkpt lat="44.42935" lon="4.77267">
        <ele>146</ele>
        <time>2015-09-06T08:27:11Z</time>
      </trkpt>
      <trkpt lat="44.4294" lon="4.77278">
        <ele>146</ele>
        <time>2015-09-06T08:27:19Z</time>
      </trkpt>
      <trkpt lat="44.42946" lon="4.77292">
        <ele>146</ele>
        <time>2015-09-06T08:27:30Z</time>
      </trkpt>
      <trkpt lat="44.42952" lon="4.77306">
        <ele>145</ele>
        <time>2015-09-06T08:27:41Z</time>
      </trkpt>
      <trkpt lat="44.42962" lon="4.77319">
        <ele>142</ele>
        <time>2015-09-06T08:27:52Z</time>
      </trkpt>
      <trkpt lat="44.4297" lon="4.77335">
        <ele>145</ele>
        <time>2015-09-06T08:28:04Z</time>
      </trkpt>
      <trkpt lat="44.42976" lon="4.7735">
        <ele>145</ele>
        <time>2015-09-06T08:28:15Z</time>
      </trkpt>
      <trkpt lat="44.42986" lon="4.77344">
        <ele>145</ele>
        <time>2015-09-06T08:28:27Z</time>
      </trkpt>
      <trkpt lat="44.42987" lon="4.7734">
        <ele>143</ele>
        <time>2015-09-06T08:28:37Z</time>
      </trkpt>
      <trkpt lat="44.42999" lon="4.77329">
        <ele>139</ele>
        <time>2015-09-06T08:28:48Z</time>
      </trkpt>
      <trkpt lat="44.43015" lon="4.77346">
        <ele>141</ele>
        <time>2015-09-06T08:29:05Z</time>
      </trkpt>
      <trkpt lat="44.43018" lon="4.77351">
        <ele>142</ele>
        <time>2015-09-06T08:29:09Z</time>
      </trkpt>
      <trkpt lat="44.43024" lon="4.77369">
        <ele>144</ele>
        <time>2015-09-06T08:29:20Z</time>
      </trkpt>
      <trkpt lat="44.43033" lon="4.77389">
        <ele>143</ele>
        <time>2015-09-06T08:29:34Z</time>
      </trkpt>
      <trkpt lat="44.43035" lon="4.77407">
        <ele>144</ele>
        <time>2015-09-06T08:29:45Z</time>
      </trkpt>
      <trkpt lat="44.43034" lon="4.77423">
        <ele>145</ele>
        <time>2015-09-06T08:29:53Z</time>
      </trkpt>
      <trkpt lat="44.43043" lon="4.77436">
        <ele>145</ele>
        <time>2015-09-06T08:30:05Z</time>
      </trkpt>
      <trkpt lat="44.43051" lon="4.77447">
        <ele>145</ele>
        <time>2015-09-06T08:30:15Z</time>
      </trkpt>
      <trkpt lat="44.4306" lon="4.7746">
        <ele>145</ele>
        <time>2015-09-06T08:30:26Z</time>
      </trkpt>
      <trkpt lat="44.43067" lon="4.77475">
        <ele>145</ele>
        <time>2015-09-06T08:30:37Z</time>
      </trkpt>
      <trkpt lat="44.43071" lon="4.77492">
        <ele>144</ele>
        <time>2015-09-06T08:30:49Z</time>
      </trkpt>
      <trkpt lat="44.43079" lon="4.77508">
        <ele>144</ele>
        <time>2015-09-06T08:31:00Z</time>
      </trkpt>
      <trkpt lat="44.43084" lon="4.77523">
        <ele>144</ele>
        <time>2015-09-06T08:31:10Z</time>
      </trkpt>
      <trkpt lat="44.43092" lon="4.77538">
        <ele>145</ele>
        <time>2015-09-06T08:31:21Z</time>
      </trkpt>
      <trkpt lat="44.43101" lon="4.77546">
        <ele>147</ele>
        <time>2015-09-06T08:31:32Z</time>
      </trkpt>
      <trkpt lat="44.43112" lon="4.77553">
        <ele>146</ele>
        <time>2015-09-06T08:31:44Z</time>
      </trkpt>
      <trkpt lat="44.43123" lon="4.77561">
        <ele>145</ele>
        <time>2015-09-06T08:31:54Z</time>
      </trkpt>
      <trkpt lat="44.43133" lon="4.7757">
        <ele>145</ele>
        <time>2015-09-06T08:32:05Z</time>
      </trkpt>
      <trkpt lat="44.43141" lon="4.77581">
        <ele>146</ele>
        <time>2015-09-06T08:32:16Z</time>
      </trkpt>
      <trkpt lat="44.43152" lon="4.77592">
        <ele>147</ele>
        <time>2015-09-06T08:32:27Z</time>
      </trkpt>
      <trkpt lat="44.43157" lon="4.7761">
        <ele>147</ele>
        <time>2015-09-06T08:32:39Z</time>
      </trkpt>
      <trkpt lat="44.43161" lon="4.77624">
        <ele>148</ele>
        <time>2015-09-06T08:32:49Z</time>
      </trkpt>
      <trkpt lat="44.43161" lon="4.77641">
        <ele>148</ele>
        <time>2015-09-06T08:33:00Z</time>
      </trkpt>
      <trkpt lat="44.43161" lon="4.77665">
        <ele>149</ele>
        <time>2015-09-06T08:33:16Z</time>
      </trkpt>
      <trkpt lat="44.4316" lon="4.77679">
        <ele>149</ele>
        <time>2015-09-06T08:33:25Z</time>
      </trkpt>
      <trkpt lat="44.43157" lon="4.77693">
        <ele>147</ele>
        <time>2015-09-06T08:33:34Z</time>
      </trkpt>
      <trkpt lat="44.43155" lon="4.7771">
        <ele>148</ele>
        <time>2015-09-06T08:33:44Z</time>
      </trkpt>
      <trkpt lat="44.43154" lon="4.7773">
        <ele>149</ele>
        <time>2015-09-06T08:33:55Z</time>
      </trkpt>
      <trkpt lat="44.43152" lon="4.77748">
        <ele>148</ele>
        <time>2015-09-06T08:34:06Z</time>
      </trkpt>
      <trkpt lat="44.43147" lon="4.77765">
        <ele>149</ele>
        <time>2015-09-06T08:34:18Z</time>
      </trkpt>
      <trkpt lat="44.43156" lon="4.77778">
        <ele>150</ele>
        <time>2015-09-06T08:34:32Z</time>
      </trkpt>
      <trkpt lat="44.43176" lon="4.77779">
        <ele>151</ele>
        <time>2015-09-06T08:34:49Z</time>
      </trkpt>
      <trkpt lat="44.43183" lon="4.77781">
        <ele>150</ele>
        <time>2015-09-06T08:34:55Z</time>
      </trkpt>
      <trkpt lat="44.43201" lon="4.77785">
        <ele>149</ele>
        <time>2015-09-06T08:35:11Z</time>
      </trkpt>
      <trkpt lat="44.43202" lon="4.77786">
        <ele>150</ele>
        <time>2015-09-06T08:35:12Z</time>
      </trkpt>
      <trkpt lat="44.43215" lon="4.77788">
        <ele>149</ele>
        <time>2015-09-06T08:35:23Z</time>
      </trkpt>
      <trkpt lat="44.43229" lon="4.7779">
        <ele>149</ele>
        <time>2015-09-06T08:35:36Z</time>
      </trkpt>
      <trkpt lat="44.43241" lon="4.77792">
        <ele>149</ele>
        <time>2015-09-06T08:35:45Z</time>
      </trkpt>
      <trkpt lat="44.43253" lon="4.77793">
        <ele>149</ele>
        <time>2015-09-06T08:35:56Z</time>
      </trkpt>
      <trkpt lat="44.43271" lon="4.77795">
        <ele>154</ele>
        <time>2015-09-06T08:36:08Z</time>
      </trkpt>
      <trkpt lat="44.43289" lon="4.77797">
        <ele>154</ele>
        <time>2015-09-06T08:36:23Z</time>
      </trkpt>
      <trkpt lat="44.43297" lon="4.77799">
        <ele>153</ele>
        <time>2015-09-06T08:36:32Z</time>
      </trkpt>
      <trkpt lat="44.43308" lon="4.77803">
        <ele>150</ele>
        <time>2015-09-06T08:36:43Z</time>
      </trkpt>
      <trkpt lat="44.43318" lon="4.77806">
        <ele>150</ele>
        <time>2015-09-06T08:36:54Z</time>
      </trkpt>
      <trkpt lat="44.43328" lon="4.77808">
        <ele>152</ele>
        <time>2015-09-06T08:37:02Z</time>
      </trkpt>
      <trkpt lat="44.43343" lon="4.77813">
        <ele>152</ele>
        <time>2015-09-06T08:37:14Z</time>
      </trkpt>
      <trkpt lat="44.43356" lon="4.77817">
        <ele>153</ele>
        <time>2015-09-06T08:37:27Z</time>
      </trkpt>
      <trkpt lat="44.43366" lon="4.77819">
        <ele>153</ele>
        <time>2015-09-06T08:37:36Z</time>
      </trkpt>
      <trkpt lat="44.43377" lon="4.77823">
        <ele>153</ele>
        <time>2015-09-06T08:37:47Z</time>
      </trkpt>
      <trkpt lat="44.43389" lon="4.77824">
        <ele>154</ele>
        <time>2015-09-06T08:37:59Z</time>
      </trkpt>
      <trkpt lat="44.434" lon="4.77825">
        <ele>156</ele>
        <time>2015-09-06T08:38:10Z</time>
      </trkpt>
      <trkpt lat="44.43412" lon="4.77825">
        <ele>158</ele>
        <time>2015-09-06T08:38:21Z</time>
      </trkpt>
      <trkpt lat="44.43423" lon="4.7782">
        <ele>161</ele>
        <time>2015-09-06T08:38:31Z</time>
      </trkpt>
      <trkpt lat="44.43444" lon="4.77808">
        <ele>162</ele>
        <time>2015-09-06T08:38:51Z</time>
      </trkpt>
      <trkpt lat="44.43445" lon="4.77807">
        <ele>163</ele>
        <time>2015-09-06T08:38:52Z</time>
      </trkpt>
      <trkpt lat="44.43457" lon="4.77796">
        <ele>161</ele>
        <time>2015-09-06T08:39:05Z</time>
      </trkpt>
      <trkpt lat="44.43465" lon="4.77788">
        <ele>162</ele>
        <time>2015-09-06T08:39:14Z</time>
      </trkpt>
      <trkpt lat="44.43473" lon="4.7778">
        <ele>166</ele>
        <time>2015-09-06T08:39:26Z</time>
      </trkpt>
      <trkpt lat="44.4348" lon="4.77773">
        <ele>167</ele>
        <time>2015-09-06T08:39:36Z</time>
      </trkpt>
      <trkpt lat="44.43487" lon="4.77771">
        <ele>167</ele>
        <time>2015-09-06T08:39:47Z</time>
      </trkpt>
      <trkpt lat="44.43501" lon="4.77776">
        <ele>168</ele>
        <time>2015-09-06T08:40:00Z</time>
      </trkpt>
      <trkpt lat="44.43513" lon="4.77782">
        <ele>167</ele>
        <time>2015-09-06T08:40:09Z</time>
      </trkpt>
      <trkpt lat="44.43524" lon="4.77789">
        <ele>166</ele>
        <time>2015-09-06T08:40:21Z</time>
      </trkpt>
      <trkpt lat="44.43535" lon="4.77795">
        <ele>168</ele>
        <time>2015-09-06T08:40:32Z</time>
      </trkpt>
      <trkpt lat="44.43549" lon="4.77804">
        <ele>169</ele>
        <time>2015-09-06T08:40:44Z</time>
      </trkpt>
      <trkpt lat="44.43559" lon="4.77811">
        <ele>168</ele>
        <time>2015-09-06T08:40:53Z</time>
      </trkpt>
      <trkpt lat="44.4357" lon="4.77817">
        <ele>166</ele>
        <time>2015-09-06T08:41:04Z</time>
      </trkpt>
      <trkpt lat="44.43578" lon="4.77826">
        <ele>172</ele>
        <time>2015-09-06T08:41:16Z</time>
      </trkpt>
      <trkpt lat="44.43575" lon="4.7784">
        <ele>169</ele>
        <time>2015-09-06T08:41:26Z</time>
      </trkpt>
      <trkpt lat="44.43585" lon="4.77858">
        <ele>159</ele>
        <time>2015-09-06T08:41:44Z</time>
      </trkpt>
      <trkpt lat="44.43592" lon="4.77862">
        <ele>171</ele>
        <time>2015-09-06T08:41:52Z</time>
      </trkpt>
      <trkpt lat="44.43605" lon="4.77872">
        <ele>163</ele>
        <time>2015-09-06T08:42:06Z</time>
      </trkpt>
      <trkpt lat="44.43614" lon="4.77878">
        <ele>166</ele>
        <time>2015-09-06T08:42:16Z</time>
      </trkpt>
      <trkpt lat="44.43619" lon="4.77881">
        <ele>172</ele>
        <time>2015-09-06T08:42:22Z</time>
      </trkpt>
      <trkpt lat="44.43628" lon="4.77888">
        <ele>177</ele>
        <time>2015-09-06T08:42:32Z</time>
      </trkpt>
      <trkpt lat="44.43636" lon="4.77894">
        <ele>176</ele>
        <time>2015-09-06T08:42:43Z</time>
      </trkpt>
      <trkpt lat="44.43644" lon="4.77902">
        <ele>176</ele>
        <time>2015-09-06T08:42:54Z</time>
      </trkpt>
      <trkpt lat="44.43653" lon="4.77909">
        <ele>181</ele>
        <time>2015-09-06T08:43:06Z</time>
      </trkpt>
      <trkpt lat="44.43662" lon="4.77918">
        <ele>182</ele>
        <time>2015-09-06T08:43:16Z</time>
      </trkpt>
      <trkpt lat="44.43671" lon="4.77928">
        <ele>181</ele>
        <time>2015-09-06T08:43:27Z</time>
      </trkpt>
      <trkpt lat="44.43681" lon="4.77938">
        <ele>182</ele>
        <time>2015-09-06T08:43:39Z</time>
      </trkpt>
      <trkpt lat="44.4369" lon="4.7795">
        <ele>176</ele>
        <time>2015-09-06T08:43:51Z</time>
      </trkpt>
      <trkpt lat="44.43692" lon="4.77967">
        <ele>176</ele>
        <time>2015-09-06T08:44:05Z</time>
      </trkpt>
      <trkpt lat="44.43692" lon="4.77977">
        <ele>179</ele>
        <time>2015-09-06T08:44:12Z</time>
      </trkpt>
      <trkpt lat="44.43688" lon="4.78013">
        <ele>169</ele>
        <time>2015-09-06T08:44:31Z</time>
      </trkpt>
      <trkpt lat="44.43688" lon="4.78018">
        <ele>175</ele>
        <time>2015-09-06T08:44:33Z</time>
      </trkpt>
      <trkpt lat="44.43684" lon="4.78054">
        <ele>176</ele>
        <time>2015-09-06T08:44:53Z</time>
      </trkpt>
      <trkpt lat="44.43683" lon="4.78057">
        <ele>171</ele>
        <time>2015-09-06T08:44:55Z</time>
      </trkpt>
      <trkpt lat="44.43678" lon="4.78091">
        <ele>179</ele>
        <time>2015-09-06T08:45:14Z</time>
      </trkpt>
      <trkpt lat="44.43677" lon="4.781">
        <ele>178</ele>
        <time>2015-09-06T08:45:20Z</time>
      </trkpt>
      <trkpt lat="44.43676" lon="4.78115">
        <ele>176</ele>
        <time>2015-09-06T08:45:28Z</time>
      </trkpt>
      <trkpt lat="44.43669" lon="4.7814">
        <ele>168</ele>
        <time>2015-09-06T08:45:44Z</time>
      </trkpt>
      <trkpt lat="44.43667" lon="4.78154">
        <ele>168</ele>
        <time>2015-09-06T08:45:55Z</time>
      </trkpt>
      <trkpt lat="44.43667" lon="4.78171">
        <ele>174</ele>
        <time>2015-09-06T08:46:04Z</time>
      </trkpt>
      <trkpt lat="44.43666" lon="4.78187">
        <ele>167</ele>
        <time>2015-09-06T08:46:14Z</time>
      </trkpt>
      <trkpt lat="44.43664" lon="4.78214">
        <ele>172</ele>
        <time>2015-09-06T08:46:31Z</time>
      </trkpt>
      <trkpt lat="44.4366" lon="4.78221">
        <ele>182</ele>
        <time>2015-09-06T08:46:36Z</time>
      </trkpt>
      <trkpt lat="44.43655" lon="4.78234">
        <ele>189</ele>
        <time>2015-09-06T08:46:50Z</time>
      </trkpt>
      <trkpt lat="44.43648" lon="4.7826">
        <ele>185</ele>
        <time>2015-09-06T08:47:06Z</time>
      </trkpt>
      <trkpt lat="44.43645" lon="4.78265">
        <ele>186</ele>
        <time>2015-09-06T08:47:11Z</time>
      </trkpt>
      <trkpt lat="44.43643" lon="4.78273">
        <ele>185</ele>
        <time>2015-09-06T08:47:18Z</time>
      </trkpt>
      <trkpt lat="44.43636" lon="4.78292">
        <ele>186</ele>
        <time>2015-09-06T08:47:31Z</time>
      </trkpt>
      <trkpt lat="44.43636" lon="4.78311">
        <ele>189</ele>
        <time>2015-09-06T08:47:40Z</time>
      </trkpt>
      <trkpt lat="44.43642" lon="4.78344">
        <ele>176</ele>
        <time>2015-09-06T08:48:00Z</time>
      </trkpt>
      <trkpt lat="44.43642" lon="4.78347">
        <ele>186</ele>
        <time>2015-09-06T08:48:02Z</time>
      </trkpt>
      <trkpt lat="44.43641" lon="4.78363">
        <ele>176</ele>
        <time>2015-09-06T08:48:14Z</time>
      </trkpt>
      <trkpt lat="44.43637" lon="4.78376">
        <ele>182</ele>
        <time>2015-09-06T08:48:26Z</time>
      </trkpt>
      <trkpt lat="44.43632" lon="4.78391">
        <ele>180</ele>
        <time>2015-09-06T08:48:36Z</time>
      </trkpt>
      <trkpt lat="44.43629" lon="4.7842">
        <ele>179</ele>
        <time>2015-09-06T08:48:53Z</time>
      </trkpt>
      <trkpt lat="44.43628" lon="4.78427">
        <ele>184</ele>
        <time>2015-09-06T08:48:57Z</time>
      </trkpt>
      <trkpt lat="44.43627" lon="4.78444">
        <ele>181</ele>
        <time>2015-09-06T08:49:09Z</time>
      </trkpt>
      <trkpt lat="44.43627" lon="4.7846">
        <ele>178</ele>
        <time>2015-09-06T08:49:21Z</time>
      </trkpt>
      <trkpt lat="44.43628" lon="4.78475">
        <ele>180</ele>
        <time>2015-09-06T08:49:30Z</time>
      </trkpt>
      <trkpt lat="44.43632" lon="4.78492">
        <ele>181</ele>
        <time>2015-09-06T08:49:41Z</time>
      </trkpt>
      <trkpt lat="44.43642" lon="4.78508">
        <ele>181</ele>
        <time>2015-09-06T08:49:56Z</time>
      </trkpt>
      <trkpt lat="44.43648" lon="4.78509">
        <ele>179</ele>
        <time>2015-09-06T08:50:03Z</time>
      </trkpt>
      <trkpt lat="44.43662" lon="4.78509">
        <ele>178</ele>
        <time>2015-09-06T08:50:17Z</time>
      </trkpt>
      <trkpt lat="44.43669" lon="4.78509">
        <ele>177</ele>
        <time>2015-09-06T08:50:26Z</time>
      </trkpt>
      <trkpt lat="44.43676" lon="4.78512">
        <ele>178</ele>
        <time>2015-09-06T08:50:36Z</time>
      </trkpt>
      <trkpt lat="44.43687" lon="4.78513">
        <ele>176</ele>
        <time>2015-09-06T08:50:47Z</time>
      </trkpt>
      <trkpt lat="44.43698" lon="4.78513">
        <ele>177</ele>
        <time>2015-09-06T08:50:58Z</time>
      </trkpt>
      <trkpt lat="44.43713" lon="4.7852">
        <ele>178</ele>
        <time>2015-09-06T08:51:09Z</time>
      </trkpt>
      <trkpt lat="44.43732" lon="4.78535">
        <ele>176</ele>
        <time>2015-09-06T08:51:27Z</time>
      </trkpt>
      <trkpt lat="44.43743" lon="4.78545">
        <ele>173</ele>
        <time>2015-09-06T08:51:40Z</time>
      </trkpt>
      <trkpt lat="44.43747" lon="4.7855">
        <ele>172</ele>
        <time>2015-09-06T08:51:44Z</time>
      </trkpt>
      <trkpt lat="44.43756" lon="4.7856">
        <ele>170</ele>
        <time>2015-09-06T08:51:56Z</time>
      </trkpt>
      <trkpt lat="44.43763" lon="4.78567">
        <ele>169</ele>
        <time>2015-09-06T08:52:04Z</time>
      </trkpt>
      <trkpt lat="44.43781" lon="4.78587">
        <ele>168</ele>
        <time>2015-09-06T08:52:24Z</time>
      </trkpt>
      <trkpt lat="44.43782" lon="4.78589">
        <ele>169</ele>
        <time>2015-09-06T08:52:26Z</time>
      </trkpt>
      <trkpt lat="44.43797" lon="4.78609">
        <ele>172</ele>
        <time>2015-09-06T08:52:43Z</time>
      </trkpt>
      <trkpt lat="44.43805" lon="4.78618">
        <ele>172</ele>
        <time>2015-09-06T08:52:51Z</time>
      </trkpt>
      <trkpt lat="44.43811" lon="4.78631">
        <ele>169</ele>
        <time>2015-09-06T08:53:01Z</time>
      </trkpt>
      <trkpt lat="44.438" lon="4.78658">
        <ele>167</ele>
        <time>2015-09-06T08:53:19Z</time>
      </trkpt>
      <trkpt lat="44.438" lon="4.7866">
        <ele>166</ele>
        <time>2015-09-06T08:53:21Z</time>
      </trkpt>
      <trkpt lat="44.43794" lon="4.78678">
        <ele>168</ele>
        <time>2015-09-06T08:53:33Z</time>
      </trkpt>
      <trkpt lat="44.4379" lon="4.78701">
        <ele>164</ele>
        <time>2015-09-06T08:53:47Z</time>
      </trkpt>
      <trkpt lat="44.43778" lon="4.78719">
        <ele>165</ele>
        <time>2015-09-06T08:54:02Z</time>
      </trkpt>
      <trkpt lat="44.43776" lon="4.78726">
        <ele>164</ele>
        <time>2015-09-06T08:54:07Z</time>
      </trkpt>
      <trkpt lat="44.43776" lon="4.78736">
        <ele>165</ele>
        <time>2015-09-06T08:54:16Z</time>
      </trkpt>
      <trkpt lat="44.43775" lon="4.78739">
        <ele>164</ele>
        <time>2015-09-06T08:54:30Z</time>
      </trkpt>
    </trkseg>
  </trk>
  <trk>
    <name><![CDATA[Sequence 2]]></name>
    <trkseg>
      <trkpt lat="44.43787" lon="4.78795">
        <ele>166</ele>
        <time>2015-09-06T09:14:59Z</time>
      </trkpt>
      <trkpt lat="44.43792" lon="4.78805">
        <ele>161</ele>
        <time>2015-09-06T09:15:08Z</time>
      </trkpt>
      <trkpt lat="44.43799" lon="4.78821">
        <ele>161</ele>
        <time>2015-09-06T09:15:19Z</time>
      </trkpt>
      <trkpt lat="44.43808" lon="4.7885">
        <ele>160</ele>
        <time>2015-09-06T09:15:39Z</time>
      </trkpt>
      <trkpt lat="44.43809" lon="4.78853">
        <ele>160</ele>
        <time>2015-09-06T09:15:41Z</time>
      </trkpt>
      <trkpt lat="44.4381" lon="4.78879">
        <ele>166</ele>
        <time>2015-09-06T09:15:58Z</time>
      </trkpt>
      <trkpt lat="44.43811" lon="4.78887">
        <ele>167</ele>
        <time>2015-09-06T09:16:03Z</time>
      </trkpt>
      <trkpt lat="44.43816" lon="4.78922">
        <ele>159</ele>
        <time>2015-09-06T09:16:22Z</time>
      </trkpt>
      <trkpt lat="44.43825" lon="4.78941">
        <ele>158</ele>
        <time>2015-09-06T09:16:35Z</time>
      </trkpt>
      <trkpt lat="44.4383" lon="4.78948">
        <ele>158</ele>
        <time>2015-09-06T09:16:42Z</time>
      </trkpt>
      <trkpt lat="44.4384" lon="4.78963">
        <ele>156</ele>
        <time>2015-09-06T09:16:55Z</time>
      </trkpt>
      <trkpt lat="44.43844" lon="4.7897">
        <ele>159</ele>
        <time>2015-09-06T09:17:00Z</time>
      </trkpt>
      <trkpt lat="44.43852" lon="4.78981">
        <ele>158</ele>
        <time>2015-09-06T09:17:11Z</time>
      </trkpt>
      <trkpt lat="44.4386" lon="4.7899">
        <ele>161</ele>
        <time>2015-09-06T09:17:20Z</time>
      </trkpt>
      <trkpt lat="44.43871" lon="4.79004">
        <ele>159</ele>
        <time>2015-09-06T09:17:33Z</time>
      </trkpt>
      <trkpt lat="44.43884" lon="4.79022">
        <ele>156</ele>
        <time>2015-09-06T09:17:48Z</time>
      </trkpt>
      <trkpt lat="44.43888" lon="4.7903">
        <ele>157</ele>
        <time>2015-09-06T09:17:53Z</time>
      </trkpt>
      <trkpt lat="44.43896" lon="4.79042">
        <ele>155</ele>
        <time>2015-09-06T09:18:04Z</time>
      </trkpt>
      <trkpt lat="44.43906" lon="4.79054">
        <ele>159</ele>
        <time>2015-09-06T09:18:16Z</time>
      </trkpt>
      <trkpt lat="44.43923" lon="4.7907">
        <ele>160</ele>
        <time>2015-09-06T09:18:35Z</time>
      </trkpt>
      <trkpt lat="44.43925" lon="4.79072">
        <ele>160</ele>
        <time>2015-09-06T09:18:37Z</time>
      </trkpt>
      <trkpt lat="44.43933" lon="4.79082">
        <ele>162</ele>
        <time>2015-09-06T09:18:48Z</time>
      </trkpt>
      <trkpt lat="44.4394" lon="4.791">
        <ele>163</ele>
        <time>2015-09-06T09:19:02Z</time>
      </trkpt>
      <trkpt lat="44.43948" lon="4.79118">
        <ele>170</ele>
        <time>2015-09-06T09:19:16Z</time>
      </trkpt>
      <trkpt lat="44.43953" lon="4.79121">
        <ele>170</ele>
        <time>2015-09-06T09:19:21Z</time>
      </trkpt>
      <trkpt lat="44.43969" lon="4.7913">
        <ele>175</ele>
        <time>2015-09-06T09:19:39Z</time>
      </trkpt>
      <trkpt lat="44.43971" lon="4.79131">
        <ele>176</ele>
        <time>2015-09-06T09:19:43Z</time>
      </trkpt>
      <trkpt lat="44.43983" lon="4.79137">
        <ele>175</ele>
        <time>2015-09-06T09:19:55Z</time>
      </trkpt>
      <trkpt lat="44.44" lon="4.79147">
        <ele>176</ele>
        <time>2015-09-06T09:20:09Z</time>
      </trkpt>
      <trkpt lat="44.44008" lon="4.79158">
        <ele>174</ele>
        <time>2015-09-06T09:20:22Z</time>
      </trkpt>
      <trkpt lat="44.44017" lon="4.79166">
        <ele>177</ele>
        <time>2015-09-06T09:20:32Z</time>
      </trkpt>
      <trkpt lat="44.44023" lon="4.7917">
        <ele>180</ele>
        <time>2015-09-06T09:20:38Z</time>
      </trkpt>
      <trkpt lat="44.44033" lon="4.79175">
        <ele>179</ele>
        <time>2015-09-06T09:20:49Z</time>
      </trkpt>
      <trkpt lat="44.4405" lon="4.792">
        <ele>179</ele>
        <time>2015-09-06T09:21:09Z</time>
      </trkpt>
      <trkpt lat="44.4405" lon="4.79203">
        <ele>177</ele>
        <time>2015-09-06T09:21:11Z</time>
      </trkpt>
      <trkpt lat="44.44051" lon="4.79216">
        <ele>176</ele>
        <time>2015-09-06T09:21:22Z</time>
      </trkpt>
      <trkpt lat="44.44052" lon="4.79236">
        <ele>177</ele>
        <time>2015-09-06T09:21:36Z</time>
      </trkpt>
      <trkpt lat="44.44053" lon="4.7925">
        <ele>178</ele>
        <time>2015-09-06T09:21:44Z</time>
      </trkpt>
      <trkpt lat="44.44056" lon="4.79267">
        <ele>179</ele>
        <time>2015-09-06T09:21:55Z</time>
      </trkpt>
      <trkpt lat="44.4407" lon="4.79285">
        <ele>181</ele>
        <time>2015-09-06T09:22:14Z</time>
      </trkpt>
      <trkpt lat="44.44074" lon="4.79289">
        <ele>183</ele>
        <time>2015-09-06T09:22:19Z</time>
      </trkpt>
      <trkpt lat="44.44081" lon="4.79293">
        <ele>181</ele>
        <time>2015-09-06T09:22:28Z</time>
      </trkpt>
      <trkpt lat="44.44092" lon="4.79301">
        <ele>183</ele>
        <time>2015-09-06T09:22:39Z</time>
      </trkpt>
      <trkpt lat="44.44104" lon="4.79309">
        <ele>187</ele>
        <time>2015-09-06T09:22:54Z</time>
      </trkpt>
      <trkpt lat="44.44111" lon="4.79314">
        <ele>187</ele>
        <time>2015-09-06T09:23:01Z</time>
      </trkpt>
      <trkpt lat="44.44121" lon="4.79319">
        <ele>190</ele>
        <time>2015-09-06T09:23:12Z</time>
      </trkpt>
      <trkpt lat="44.44128" lon="4.79322">
        <ele>187</ele>
        <time>2015-09-06T09:23:24Z</time>
      </trkpt>
      <trkpt lat="44.44137" lon="4.79325">
        <ele>180</ele>
        <time>2015-09-06T09:23:34Z</time>
      </trkpt>
      <trkpt lat="44.44148" lon="4.7933">
        <ele>187</ele>
        <time>2015-09-06T09:23:47Z</time>
      </trkpt>
      <trkpt lat="44.44155" lon="4.79337">
        <ele>181</ele>
        <time>2015-09-06T09:23:56Z</time>
      </trkpt>
      <trkpt lat="44.44165" lon="4.79343">
        <ele>190</ele>
        <time>2015-09-06T09:24:07Z</time>
      </trkpt>
      <trkpt lat="44.44176" lon="4.79348">
        <ele>190</ele>
        <time>2015-09-06T09:24:18Z</time>
      </trkpt>
      <trkpt lat="44.44188" lon="4.79354">
        <ele>197</ele>
        <time>2015-09-06T09:24:29Z</time>
      </trkpt>
      <trkpt lat="44.44199" lon="4.79358">
        <ele>197</ele>
        <time>2015-09-06T09:24:42Z</time>
      </trkpt>
      <trkpt lat="44.44213" lon="4.79361">
        <ele>194</ele>
        <time>2015-09-06T09:24:56Z</time>
      </trkpt>
      <trkpt lat="44.44218" lon="4.79362">
        <ele>200</ele>
        <time>2015-09-06T09:25:02Z</time>
      </trkpt>
      <trkpt lat="44.44228" lon="4.79365">
        <ele>181</ele>
        <time>2015-09-06T09:25:14Z</time>
      </trkpt>
      <trkpt lat="44.44238" lon="4.79368">
        <ele>206</ele>
        <time>2015-09-06T09:25:25Z</time>
      </trkpt>
      <trkpt lat="44.44246" lon="4.7937">
        <ele>198</ele>
        <time>2015-09-06T09:25:35Z</time>
      </trkpt>
      <trkpt lat="44.44261" lon="4.79377">
        <ele>210</ele>
        <time>2015-09-06T09:25:50Z</time>
      </trkpt>
      <trkpt lat="44.44267" lon="4.79381">
        <ele>209</ele>
        <time>2015-09-06T09:25:57Z</time>
      </trkpt>
      <trkpt lat="44.44279" lon="4.79387">
        <ele>209</ele>
        <time>2015-09-06T09:26:08Z</time>
      </trkpt>
      <trkpt lat="44.4429" lon="4.79395">
        <ele>202</ele>
        <time>2015-09-06T09:26:19Z</time>
      </trkpt>
      <trkpt lat="44.44303" lon="4.79406">
        <ele>195</ele>
        <time>2015-09-06T09:26:32Z</time>
      </trkpt>
      <trkpt lat="44.44312" lon="4.79411">
        <ele>196</ele>
        <time>2015-09-06T09:26:43Z</time>
      </trkpt>
      <trkpt lat="44.4432" lon="4.79414">
        <ele>216</ele>
        <time>2015-09-06T09:26:52Z</time>
      </trkpt>
      <trkpt lat="44.44339" lon="4.79419">
        <ele>214</ele>
        <time>2015-09-06T09:27:07Z</time>
      </trkpt>
      <trkpt lat="44.4435" lon="4.7942">
        <ele>201</ele>
        <time>2015-09-06T09:27:15Z</time>
      </trkpt>
      <trkpt lat="44.44366" lon="4.79422">
        <ele>217</ele>
        <time>2015-09-06T09:27:29Z</time>
      </trkpt>
      <trkpt lat="44.44374" lon="4.79422">
        <ele>221</ele>
        <time>2015-09-06T09:27:40Z</time>
      </trkpt>
      <trkpt lat="44.44383" lon="4.79422">
        <ele>222</ele>
        <time>2015-09-06T09:27:49Z</time>
      </trkpt>
      <trkpt lat="44.44397" lon="4.79419">
        <ele>225</ele>
        <time>2015-09-06T09:27:59Z</time>
      </trkpt>
      <trkpt lat="44.44409" lon="4.79411">
        <ele>226</ele>
        <time>2015-09-06T09:28:11Z</time>
      </trkpt>
      <trkpt lat="44.44419" lon="4.79405">
        <ele>228</ele>
        <time>2015-09-06T09:28:22Z</time>
      </trkpt>
      <trkpt lat="44.44429" lon="4.79401">
        <ele>208</ele>
        <time>2015-09-06T09:28:33Z</time>
      </trkpt>
      <trkpt lat="44.44442" lon="4.79394">
        <ele>225</ele>
        <time>2015-09-06T09:28:47Z</time>
      </trkpt>
      <trkpt lat="44.4445" lon="4.79389">
        <ele>229</ele>
        <time>2015-09-06T09:28:55Z</time>
      </trkpt>
      <trkpt lat="44.4446" lon="4.79387">
        <ele>217</ele>
        <time>2015-09-06T09:29:06Z</time>
      </trkpt>
      <trkpt lat="44.44448" lon="4.79409">
        <ele>221</ele>
        <time>2015-09-06T09:29:24Z</time>
      </trkpt>
      <trkpt lat="44.44444" lon="4.79415">
        <ele>215</ele>
        <time>2015-09-06T09:29:29Z</time>
      </trkpt>
      <trkpt lat="44.44434" lon="4.79428">
        <ele>224</ele>
        <time>2015-09-06T09:29:42Z</time>
      </trkpt>
      <trkpt lat="44.44431" lon="4.79436">
        <ele>211</ele>
        <time>2015-09-06T09:29:48Z</time>
      </trkpt>
      <trkpt lat="44.44425" lon="4.7945">
        <ele>224</ele>
        <time>2015-09-06T09:29:59Z</time>
      </trkpt>
      <trkpt lat="44.44415" lon="4.79476">
        <ele>221</ele>
        <time>2015-09-06T09:30:19Z</time>
      </trkpt>
      <trkpt lat="44.44414" lon="4.79479">
        <ele>223</ele>
        <time>2015-09-06T09:30:21Z</time>
      </trkpt>
      <trkpt lat="44.4441" lon="4.79494">
        <ele>201</ele>
        <time>2015-09-06T09:30:32Z</time>
      </trkpt>
      <trkpt lat="44.44404" lon="4.79511">
        <ele>222</ele>
        <time>2015-09-06T09:30:43Z</time>
      </trkpt>
      <trkpt lat="44.44398" lon="4.79527">
        <ele>202</ele>
        <time>2015-09-06T09:30:54Z</time>
      </trkpt>
      <trkpt lat="44.4439" lon="4.79552">
        <ele>200</ele>
        <time>2015-09-06T09:31:12Z</time>
      </trkpt>
      <trkpt lat="44.44387" lon="4.79557">
        <ele>220</ele>
        <time>2015-09-06T09:31:16Z</time>
      </trkpt>
      <trkpt lat="44.44377" lon="4.79565">
        <ele>220</ele>
        <time>2015-09-06T09:31:29Z</time>
      </trkpt>
      <trkpt lat="44.44373" lon="4.79576">
        <ele>219</ele>
        <time>2015-09-06T09:31:38Z</time>
      </trkpt>
      <trkpt lat="44.44371" lon="4.79596">
        <ele>212</ele>
        <time>2015-09-06T09:31:49Z</time>
      </trkpt>
      <trkpt lat="44.44372" lon="4.79613">
        <ele>214</ele>
        <time>2015-09-06T09:32:00Z</time>
      </trkpt>
      <trkpt lat="44.44375" lon="4.79634">
        <ele>213</ele>
        <time>2015-09-06T09:32:13Z</time>
      </trkpt>
      <trkpt lat="44.44376" lon="4.79651">
        <ele>206</ele>
        <time>2015-09-06T09:32:23Z</time>
      </trkpt>
      <trkpt lat="44.44377" lon="4.7967">
        <ele>190</ele>
        <time>2015-09-06T09:32:34Z</time>
      </trkpt>
      <trkpt lat="44.44374" lon="4.79692">
        <ele>209</ele>
        <time>2015-09-06T09:32:49Z</time>
      </trkpt>
      <trkpt lat="44.44368" lon="4.79701">
        <ele>188</ele>
        <time>2015-09-06T09:32:55Z</time>
      </trkpt>
      <trkpt lat="44.44358" lon="4.79714">
        <ele>207</ele>
        <time>2015-09-06T09:33:06Z</time>
      </trkpt>
      <trkpt lat="44.44347" lon="4.79726">
        <ele>220</ele>
        <time>2015-09-06T09:33:19Z</time>
      </trkpt>
      <trkpt lat="44.44329" lon="4.79737">
        <ele>195</ele>
        <time>2015-09-06T09:33:36Z</time>
      </trkpt>
      <trkpt lat="44.44323" lon="4.79741">
        <ele>222</ele>
        <time>2015-09-06T09:33:41Z</time>
      </trkpt>
      <trkpt lat="44.44313" lon="4.79748">
        <ele>217</ele>
        <time>2015-09-06T09:33:50Z</time>
      </trkpt>
      <trkpt lat="44.44304" lon="4.79755">
        <ele>214</ele>
        <time>2015-09-06T09:34:02Z</time>
      </trkpt>
      <trkpt lat="44.44294" lon="4.79762">
        <ele>211</ele>
        <time>2015-09-06T09:34:16Z</time>
      </trkpt>
      <trkpt lat="44.44281" lon="4.79779">
        <ele>192</ele>
        <time>2015-09-06T09:34:33Z</time>
      </trkpt>
      <trkpt lat="44.44275" lon="4.79785">
        <ele>202</ele>
        <time>2015-09-06T09:34:40Z</time>
      </trkpt>
      <trkpt lat="44.44272" lon="4.79789">
        <ele>208</ele>
        <time>2015-09-06T09:34:45Z</time>
      </trkpt>
      <trkpt lat="44.44258" lon="4.79803">
        <ele>196</ele>
        <time>2015-09-06T09:35:00Z</time>
      </trkpt>
      <trkpt lat="44.4425" lon="4.7981">
        <ele>210</ele>
        <time>2015-09-06T09:35:09Z</time>
      </trkpt>
      <trkpt lat="44.44243" lon="4.79817">
        <ele>205</ele>
        <time>2015-09-06T09:35:18Z</time>
      </trkpt>
      <trkpt lat="44.44232" lon="4.79829">
        <ele>181</ele>
        <time>2015-09-06T09:35:33Z</time>
      </trkpt>
      <trkpt lat="44.44224" lon="4.79832">
        <ele>203</ele>
        <time>2015-09-06T09:35:42Z</time>
      </trkpt>
      <trkpt lat="44.44216" lon="4.79832">
        <ele>202</ele>
        <time>2015-09-06T09:35:51Z</time>
      </trkpt>
      <trkpt lat="44.44203" lon="4.79834">
        <ele>185</ele>
        <time>2015-09-06T09:36:08Z</time>
      </trkpt>
      <trkpt lat="44.4419" lon="4.79835">
        <ele>200</ele>
        <time>2015-09-06T09:36:19Z</time>
      </trkpt>
      <trkpt lat="44.44185" lon="4.79835">
        <ele>190</ele>
        <time>2015-09-06T09:36:24Z</time>
      </trkpt>
      <trkpt lat="44.44173" lon="4.79835">
        <ele>191</ele>
        <time>2015-09-06T09:36:35Z</time>
      </trkpt>
      <trkpt lat="44.44163" lon="4.79836">
        <ele>195</ele>
        <time>2015-09-06T09:36:46Z</time>
      </trkpt>
      <trkpt lat="44.44151" lon="4.79835">
        <ele>192</ele>
        <time>2015-09-06T09:36:57Z</time>
      </trkpt>
      <trkpt lat="44.44138" lon="4.79835">
        <ele>184</ele>
        <time>2015-09-06T09:37:09Z</time>
      </trkpt>
      <trkpt lat="44.44128" lon="4.79836">
        <ele>178</ele>
        <time>2015-09-06T09:37:19Z</time>
      </trkpt>
      <trkpt lat="44.44115" lon="4.79838">
        <ele>181</ele>
        <time>2015-09-06T09:37:30Z</time>
      </trkpt>
      <trkpt lat="44.44103" lon="4.79838">
        <ele>182</ele>
        <time>2015-09-06T09:37:41Z</time>
      </trkpt>
      <trkpt lat="44.4409" lon="4.79838">
        <ele>180</ele>
        <time>2015-09-06T09:37:53Z</time>
      </trkpt>
      <trkpt lat="44.44079" lon="4.7984">
        <ele>179</ele>
        <time>2015-09-06T09:38:03Z</time>
      </trkpt>
      <trkpt lat="44.44066" lon="4.79846">
        <ele>176</ele>
        <time>2015-09-06T09:38:15Z</time>
      </trkpt>
      <trkpt lat="44.44054" lon="4.79851">
        <ele>176</ele>
        <time>2015-09-06T09:38:25Z</time>
      </trkpt>
      <trkpt lat="44.44041" lon="4.79858">
        <ele>176</ele>
        <time>2015-09-06T09:38:36Z</time>
      </trkpt>
      <trkpt lat="44.44027" lon="4.79867">
        <ele>180</ele>
        <time>2015-09-06T09:38:49Z</time>
      </trkpt>
      <trkpt lat="44.44017" lon="4.7987">
        <ele>179</ele>
        <time>2015-09-06T09:38:58Z</time>
      </trkpt>
      <trkpt lat="44.44003" lon="4.79873">
        <ele>177</ele>
        <time>2015-09-06T09:39:11Z</time>
      </trkpt>
      <trkpt lat="44.43995" lon="4.79876">
        <ele>172</ele>
        <time>2015-09-06T09:39:20Z</time>
      </trkpt>
      <trkpt lat="44.43981" lon="4.79883">
        <ele>178</ele>
        <time>2015-09-06T09:39:31Z</time>
      </trkpt>
      <trkpt lat="44.43969" lon="4.79882">
        <ele>182</ele>
        <time>2015-09-06T09:39:42Z</time>
      </trkpt>
      <trkpt lat="44.43959" lon="4.79877">
        <ele>183</ele>
        <time>2015-09-06T09:39:53Z</time>
      </trkpt>
      <trkpt lat="44.43948" lon="4.79866">
        <ele>174</ele>
        <time>2015-09-06T09:40:04Z</time>
      </trkpt>
      <trkpt lat="44.4394" lon="4.79848">
        <ele>180</ele>
        <time>2015-09-06T09:40:16Z</time>
      </trkpt>
      <trkpt lat="44.43933" lon="4.79834">
        <ele>174</ele>
        <time>2015-09-06T09:40:26Z</time>
      </trkpt>
      <trkpt lat="44.43926" lon="4.79822">
        <ele>171</ele>
        <time>2015-09-06T09:40:37Z</time>
      </trkpt>
      <trkpt lat="44.43919" lon="4.79806">
        <ele>171</ele>
        <time>2015-09-06T09:40:48Z</time>
      </trkpt>
      <trkpt lat="44.43911" lon="4.79788">
        <ele>173</ele>
        <time>2015-09-06T09:41:00Z</time>
      </trkpt>
      <trkpt lat="44.43905" lon="4.79773">
        <ele>179</ele>
        <time>2015-09-06T09:41:10Z</time>
      </trkpt>
      <trkpt lat="44.43898" lon="4.79758">
        <ele>184</ele>
        <time>2015-09-06T09:41:21Z</time>
      </trkpt>
      <trkpt lat="44.43889" lon="4.79749">
        <ele>183</ele>
        <time>2015-09-06T09:41:32Z</time>
      </trkpt>
      <trkpt lat="44.43877" lon="4.79744">
        <ele>186</ele>
        <time>2015-09-06T09:41:43Z</time>
      </trkpt>
      <trkpt lat="44.43867" lon="4.79741">
        <ele>189</ele>
        <time>2015-09-06T09:41:54Z</time>
      </trkpt>
      <trkpt lat="44.43858" lon="4.7974">
        <ele>185</ele>
        <time>2015-09-06T09:42:05Z</time>
      </trkpt>
      <trkpt lat="44.43857" lon="4.79741">
        <ele>190</ele>
        <time>2015-09-06T09:42:16Z</time>
      </trkpt>
      <trkpt lat="44.43854" lon="4.79745">
        <ele>193</ele>
        <time>2015-09-06T09:42:22Z</time>
      </trkpt>
      <trkpt lat="44.43851" lon="4.79746">
        <ele>195</ele>
        <time>2015-09-06T09:42:30Z</time>
      </trkpt>
      <trkpt lat="44.43847" lon="4.79751">
        <ele>196</ele>
        <time>2015-09-06T09:42:41Z</time>
      </trkpt>
      <trkpt lat="44.43847" lon="4.79751">
        <ele>197</ele>
        <time>2015-09-06T09:42:53Z</time>
      </trkpt>
      <trkpt lat="44.43847" lon="4.79751">
        <ele>197</ele>
        <time>2015-09-06T09:42:55Z</time>
      </trkpt>
      <trkpt lat="44.43847" lon="4.79751">
        <ele>197</ele>
        <time>2015-09-06T09:42:58Z</time>
      </trkpt>
      <trkpt lat="44.43846" lon="4.79751">
        <ele>197</ele>
        <time>2015-09-06T09:43:02Z</time>
      </trkpt>
      <trkpt lat="44.43845" lon="4.79752">
        <ele>198</ele>
        <time>2015-09-06T09:43:04Z</time>
      </trkpt>
      <trkpt lat="44.43831" lon="4.79745">
        <ele>196</ele>
        <time>2015-09-06T09:43:15Z</time>
      </trkpt>
      <trkpt lat="44.43809" lon="4.79749">
        <ele>177</ele>
        <time>2015-09-06T09:43:30Z</time>
      </trkpt>
      <trkpt lat="44.43801" lon="4.79749">
        <ele>175</ele>
        <time>2015-09-06T09:43:43Z</time>
      </trkpt>
      <trkpt lat="44.43798" lon="4.7975">
        <ele>187</ele>
        <time>2015-09-06T09:43:48Z</time>
      </trkpt>
      <trkpt lat="44.43791" lon="4.7975">
        <ele>203</ele>
        <time>2015-09-06T09:43:59Z</time>
      </trkpt>
      <trkpt lat="44.43768" lon="4.79746">
        <ele>181</ele>
        <time>2015-09-06T09:44:20Z</time>
      </trkpt>
      <trkpt lat="44.43755" lon="4.79741">
        <ele>184</ele>
        <time>2015-09-06T09:44:30Z</time>
      </trkpt>
      <trkpt lat="44.43753" lon="4.79738">
        <ele>183</ele>
        <time>2015-09-06T09:44:32Z</time>
      </trkpt>
      <trkpt lat="44.43743" lon="4.79731">
        <ele>202</ele>
        <time>2015-09-06T09:44:46Z</time>
      </trkpt>
      <trkpt lat="44.43735" lon="4.79731">
        <ele>215</ele>
        <time>2015-09-06T09:44:57Z</time>
      </trkpt>
      <trkpt lat="44.43729" lon="4.79737">
        <ele>209</ele>
        <time>2015-09-06T09:45:05Z</time>
      </trkpt>
      <trkpt lat="44.43715" lon="4.79756">
        <ele>220</ele>
        <time>2015-09-06T09:45:23Z</time>
      </trkpt>
      <trkpt lat="44.43711" lon="4.79757">
        <ele>219</ele>
        <time>2015-09-06T09:45:27Z</time>
      </trkpt>
      <trkpt lat="44.43694" lon="4.79768">
        <ele>201</ele>
        <time>2015-09-06T09:45:44Z</time>
      </trkpt>
      <trkpt lat="44.4369" lon="4.79774">
        <ele>217</ele>
        <time>2015-09-06T09:45:49Z</time>
      </trkpt>
      <trkpt lat="44.43685" lon="4.79784">
        <ele>217</ele>
        <time>2015-09-06T09:46:03Z</time>
      </trkpt>
      <trkpt lat="44.43677" lon="4.79786">
        <ele>213</ele>
        <time>2015-09-06T09:46:15Z</time>
      </trkpt>
      <trkpt lat="44.43672" lon="4.79784">
        <ele>192</ele>
        <time>2015-09-06T09:46:22Z</time>
      </trkpt>
      <trkpt lat="44.43667" lon="4.79787">
        <ele>208</ele>
        <time>2015-09-06T09:46:33Z</time>
      </trkpt>
      <trkpt lat="44.43659" lon="4.79789">
        <ele>213</ele>
        <time>2015-09-06T09:46:45Z</time>
      </trkpt>
      <trkpt lat="44.43645" lon="4.79797">
        <ele>214</ele>
        <time>2015-09-06T09:46:56Z</time>
      </trkpt>
      <trkpt lat="44.43637" lon="4.79804">
        <ele>213</ele>
        <time>2015-09-06T09:47:06Z</time>
      </trkpt>
      <trkpt lat="44.43632" lon="4.79813">
        <ele>210</ele>
        <time>2015-09-06T09:47:17Z</time>
      </trkpt>
      <trkpt lat="44.43621" lon="4.79829">
        <ele>215</ele>
        <time>2015-09-06T09:47:30Z</time>
      </trkpt>
      <trkpt lat="44.43611" lon="4.79836">
        <ele>205</ele>
        <time>2015-09-06T09:47:39Z</time>
      </trkpt>
      <trkpt lat="44.43602" lon="4.79843">
        <ele>196</ele>
        <time>2015-09-06T09:47:50Z</time>
      </trkpt>
      <trkpt lat="44.43589" lon="4.79842">
        <ele>198</ele>
        <time>2015-09-06T09:48:02Z</time>
      </trkpt>
      <trkpt lat="44.43583" lon="4.7984">
        <ele>213</ele>
        <time>2015-09-06T09:48:12Z</time>
      </trkpt>
      <trkpt lat="44.43573" lon="4.79836">
        <ele>211</ele>
        <time>2015-09-06T09:48:23Z</time>
      </trkpt>
      <trkpt lat="44.43558" lon="4.7983">
        <ele>208</ele>
        <time>2015-09-06T09:48:39Z</time>
      </trkpt>
      <trkpt lat="44.43552" lon="4.79829">
        <ele>200</ele>
        <time>2015-09-06T09:48:45Z</time>
      </trkpt>
      <trkpt lat="44.43541" lon="4.79827">
        <ele>202</ele>
        <time>2015-09-06T09:48:56Z</time>
      </trkpt>
      <trkpt lat="44.43521" lon="4.79824">
        <ele>178</ele>
        <time>2015-09-06T09:49:13Z</time>
      </trkpt>
      <trkpt lat="44.43508" lon="4.79823">
        <ele>199</ele>
        <time>2015-09-06T09:49:25Z</time>
      </trkpt>
      <trkpt lat="44.43501" lon="4.79825">
        <ele>206</ele>
        <time>2015-09-06T09:49:31Z</time>
      </trkpt>
      <trkpt lat="44.4349" lon="4.79826">
        <ele>206</ele>
        <time>2015-09-06T09:49:40Z</time>
      </trkpt>
      <trkpt lat="44.43475" lon="4.79827">
        <ele>181</ele>
        <time>2015-09-06T09:49:52Z</time>
      </trkpt>
      <trkpt lat="44.43461" lon="4.79829">
        <ele>194</ele>
        <time>2015-09-06T09:50:03Z</time>
      </trkpt>
      <trkpt lat="44.43447" lon="4.79824">
        <ele>184</ele>
        <time>2015-09-06T09:50:15Z</time>
      </trkpt>
      <trkpt lat="44.43441" lon="4.79813">
        <ele>180</ele>
        <time>2015-09-06T09:50:24Z</time>
      </trkpt>
      <trkpt lat="44.43436" lon="4.79805">
        <ele>196</ele>
        <time>2015-09-06T09:50:35Z</time>
      </trkpt>
      <trkpt lat="44.43428" lon="4.79795">
        <ele>196</ele>
        <time>2015-09-06T09:50:47Z</time>
      </trkpt>
      <trkpt lat="44.43415" lon="4.79792">
        <ele>198</ele>
        <time>2015-09-06T09:50:57Z</time>
      </trkpt>
      <trkpt lat="44.43403" lon="4.79788">
        <ele>186</ele>
        <time>2015-09-06T09:51:09Z</time>
      </trkpt>
      <trkpt lat="44.43387" lon="4.79783">
        <ele>164</ele>
        <time>2015-09-06T09:51:25Z</time>
      </trkpt>
      <trkpt lat="44.43378" lon="4.79777">
        <ele>174</ele>
        <time>2015-09-06T09:51:34Z</time>
      </trkpt>
      <trkpt lat="44.43366" lon="4.79772">
        <ele>180</ele>
        <time>2015-09-06T09:51:45Z</time>
      </trkpt>
      <trkpt lat="44.4336" lon="4.79769">
        <ele>186</ele>
        <time>2015-09-06T09:51:52Z</time>
      </trkpt>
      <trkpt lat="44.43351" lon="4.79766">
        <ele>179</ele>
        <time>2015-09-06T09:52:03Z</time>
      </trkpt>
      <trkpt lat="44.43342" lon="4.79762">
        <ele>193</ele>
        <time>2015-09-06T09:52:14Z</time>
      </trkpt>
      <trkpt lat="44.4333" lon="4.79754">
        <ele>163</ele>
        <time>2015-09-06T09:52:29Z</time>
      </trkpt>
      <trkpt lat="44.43312" lon="4.79742">
        <ele>164</ele>
        <time>2015-09-06T09:52:46Z</time>
      </trkpt>
      <trkpt lat="44.43311" lon="4.79741">
        <ele>168</ele>
        <time>2015-09-06T09:52:47Z</time>
      </trkpt>
      <trkpt lat="44.43294" lon="4.79729">
        <ele>165</ele>
        <time>2015-09-06T09:53:07Z</time>
      </trkpt>
      <trkpt lat="44.43289" lon="4.79732">
        <ele>184</ele>
        <time>2015-09-06T09:53:13Z</time>
      </trkpt>
      <trkpt lat="44.43282" lon="4.79738">
        <ele>185</ele>
        <time>2015-09-06T09:53:21Z</time>
      </trkpt>
      <trkpt lat="44.43272" lon="4.79743">
        <ele>185</ele>
        <time>2015-09-06T09:53:32Z</time>
      </trkpt>
      <trkpt lat="44.43262" lon="4.79746">
        <ele>177</ele>
        <time>2015-09-06T09:53:42Z</time>
      </trkpt>
      <trkpt lat="44.43247" lon="4.7975">
        <ele>183</ele>
        <time>2015-09-06T09:53:57Z</time>
      </trkpt>
      <trkpt lat="44.43239" lon="4.79751">
        <ele>179</ele>
        <time>2015-09-06T09:54:05Z</time>
      </trkpt>
      <trkpt lat="44.4323" lon="4.79755">
        <ele>171</ele>
        <time>2015-09-06T09:54:16Z</time>
      </trkpt>
      <trkpt lat="44.43215" lon="4.79766">
        <ele>180</ele>
        <time>2015-09-06T09:54:30Z</time>
      </trkpt>
      <trkpt lat="44.43207" lon="4.7977">
        <ele>184</ele>
        <time>2015-09-06T09:54:38Z</time>
      </trkpt>
      <trkpt lat="44.43196" lon="4.79775">
        <ele>175</ele>
        <time>2015-09-06T09:54:48Z</time>
      </trkpt>
      <trkpt lat="44.4318" lon="4.79789">
        <ele>182</ele>
        <time>2015-09-06T09:55:06Z</time>
      </trkpt>
      <trkpt lat="44.43177" lon="4.79792">
        <ele>185</ele>
        <time>2015-09-06T09:55:10Z</time>
      </trkpt>
      <trkpt lat="44.43167" lon="4.79802">
        <ele>180</ele>
        <time>2015-09-06T09:55:21Z</time>
      </trkpt>
      <trkpt lat="44.43152" lon="4.79829">
        <ele>185</ele>
        <time>2015-09-06T09:55:41Z</time>
      </trkpt>
      <trkpt lat="44.4315" lon="4.79829">
        <ele>185</ele>
        <time>2015-09-06T09:55:43Z</time>
      </trkpt>
      <trkpt lat="44.43141" lon="4.79834">
        <ele>175</ele>
        <time>2015-09-06T09:55:54Z</time>
      </trkpt>
      <trkpt lat="44.43132" lon="4.79847">
        <ele>175</ele>
        <time>2015-09-06T09:56:05Z</time>
      </trkpt>
      <trkpt lat="44.43123" lon="4.79871">
        <ele>184</ele>
        <time>2015-09-06T09:56:23Z</time>
      </trkpt>
      <trkpt lat="44.43122" lon="4.79873">
        <ele>184</ele>
        <time>2015-09-06T09:56:27Z</time>
      </trkpt>
      <trkpt lat="44.43117" lon="4.79891">
        <ele>181</ele>
        <time>2015-09-06T09:56:41Z</time>
      </trkpt>
      <trkpt lat="44.43101" lon="4.7989">
        <ele>179</ele>
        <time>2015-09-06T09:56:52Z</time>
      </trkpt>
      <trkpt lat="44.4309" lon="4.79887">
        <ele>174</ele>
        <time>2015-09-06T09:57:01Z</time>
      </trkpt>
      <trkpt lat="44.4307" lon="4.79879">
        <ele>174</ele>
        <time>2015-09-06T09:57:21Z</time>
      </trkpt>
      <trkpt lat="44.43067" lon="4.79879">
        <ele>178</ele>
        <time>2015-09-06T09:57:27Z</time>
      </trkpt>
      <trkpt lat="44.43063" lon="4.79875">
        <ele>173</ele>
        <time>2015-09-06T09:57:35Z</time>
      </trkpt>
      <trkpt lat="44.43055" lon="4.79874">
        <ele>176</ele>
        <time>2015-09-06T09:57:44Z</time>
      </trkpt>
      <trkpt lat="44.43047" lon="4.79875">
        <ele>174</ele>
        <time>2015-09-06T09:57:56Z</time>
      </trkpt>
      <trkpt lat="44.43034" lon="4.79871">
        <ele>176</ele>
        <time>2015-09-06T09:58:13Z</time>
      </trkpt>
      <trkpt lat="44.4303" lon="4.79871">
        <ele>171</ele>
        <time>2015-09-06T09:58:17Z</time>
      </trkpt>
      <trkpt lat="44.4302" lon="4.79866">
        <ele>176</ele>
        <time>2015-09-06T09:58:28Z</time>
      </trkpt>
      <trkpt lat="44.43011" lon="4.79858">
        <ele>174</ele>
        <time>2015-09-06T09:58:39Z</time>
      </trkpt>
      <trkpt lat="44.42999" lon="4.79853">
        <ele>174</ele>
        <time>2015-09-06T09:58:53Z</time>
      </trkpt>
      <trkpt lat="44.42991" lon="4.79855">
        <ele>173</ele>
        <time>2015-09-06T09:59:05Z</time>
      </trkpt>
      <trkpt lat="44.42991" lon="4.79855">
        <ele>178</ele>
        <time>2015-09-06T09:59:12Z</time>
      </trkpt>
      <trkpt lat="44.42991" lon="4.79855">
        <ele>168</ele>
        <time>2015-09-06T09:59:15Z</time>
      </trkpt>
      <trkpt lat="44.42991" lon="4.79855">
        <ele>176</ele>
        <time>2015-09-06T09:59:18Z</time>
      </trkpt>
      <trkpt lat="44.42991" lon="4.79855">
        <ele>170</ele>
        <time>2015-09-06T09:59:21Z</time>
      </trkpt>
      <trkpt lat="44.42991" lon="4.79855">
        <ele>177</ele>
        <time>2015-09-06T09:59:24Z</time>
      </trkpt>
      <trkpt lat="44.42991" lon="4.79855">
        <ele>178</ele>
        <time>2015-09-06T09:59:27Z</time>
      </trkpt>
      <trkpt lat="44.42991" lon="4.79855">
        <ele>173</ele>
        <time>2015-09-06T09:59:30Z</time>
      </trkpt>
      <trkpt lat="44.42991" lon="4.79853">
        <ele>170</ele>
        <time>2015-09-06T09:59:34Z</time>
      </trkpt>
      <trkpt lat="44.42984" lon="4.79847">
        <ele>169</ele>
        <time>2015-09-06T09:59:45Z</time>
      </trkpt>
      <trkpt lat="44.42979" lon="4.79844">
        <ele>179</ele>
        <time>2015-09-06T09:59:57Z</time>
      </trkpt>
      <trkpt lat="44.42976" lon="4.79842">
        <ele>176</ele>
        <time>2015-09-06T10:00:07Z</time>
      </trkpt>
      <trkpt lat="44.42975" lon="4.79843">
        <ele>175</ele>
        <time>2015-09-06T10:00:17Z</time>
      </trkpt>
      <trkpt lat="44.42975" lon="4.79843">
        <ele>175</ele>
        <time>2015-09-06T10:00:20Z</time>
      </trkpt>
      <trkpt lat="44.42975" lon="4.79843">
        <ele>175</ele>
        <time>2015-09-06T10:00:23Z</time>
      </trkpt>
      <trkpt lat="44.42975" lon="4.79843">
        <ele>170</ele>
        <time>2015-09-06T10:00:27Z</time>
      </trkpt>
      <trkpt lat="44.42975" lon="4.79843">
        <ele>177</ele>
        <time>2015-09-06T10:00:29Z</time>
      </trkpt>
      <trkpt lat="44.42975" lon="4.79843">
        <ele>170</ele>
        <time>2015-09-06T10:00:32Z</time>
      </trkpt>
      <trkpt lat="44.42975" lon="4.79843">
        <ele>171</ele>
        <time>2015-09-06T10:00:35Z</time>
      </trkpt>
      <trkpt lat="44.42976" lon="4.79844">
        <ele>178</ele>
        <time>2015-09-06T10:00:38Z</time>
      </trkpt>
      <trkpt lat="44.4297" lon="4.79849">
        <ele>180</ele>
        <time>2015-09-06T10:00:50Z</time>
      </trkpt>
      <trkpt lat="44.42966" lon="4.79845">
        <ele>176</ele>
        <time>2015-09-06T10:01:01Z</time>
      </trkpt>
      <trkpt lat="44.42964" lon="4.79841">
        <ele>176</ele>
        <time>2015-09-06T10:01:11Z</time>
      </trkpt>
      <trkpt lat="44.42963" lon="4.79843">
        <ele>176</ele>
        <time>2015-09-06T10:01:22Z</time>
      </trkpt>
      <trkpt lat="44.42963" lon="4.79842">
        <ele>177</ele>
        <time>2015-09-06T10:01:25Z</time>
      </trkpt>
      <trkpt lat="44.42963" lon="4.79841">
        <ele>176</ele>
        <time>2015-09-06T10:01:32Z</time>
      </trkpt>
      <trkpt lat="44.42963" lon="4.79841">
        <ele>171</ele>
        <time>2015-09-06T10:01:34Z</time>
      </trkpt>
      <trkpt lat="44.42963" lon="4.79842">
        <ele>177</ele>
        <time>2015-09-06T10:01:37Z</time>
      </trkpt>
      <trkpt lat="44.42963" lon="4.79842">
        <ele>178</ele>
        <time>2015-09-06T10:01:40Z</time>
      </trkpt>
      <trkpt lat="44.42963" lon="4.79841">
        <ele>170</ele>
        <time>2015-09-06T10:01:43Z</time>
      </trkpt>
      <trkpt lat="44.42963" lon="4.79841">
        <ele>176</ele>
        <time>2015-09-06T10:01:46Z</time>
      </trkpt>
      <trkpt lat="44.42963" lon="4.79841">
        <ele>178</ele>
        <time>2015-09-06T10:01:49Z</time>
      </trkpt>
      <trkpt lat="44.42963" lon="4.79841">
        <ele>173</ele>
        <time>2015-09-06T10:01:52Z</time>
      </trkpt>
      <trkpt lat="44.42963" lon="4.79841">
        <ele>173</ele>
        <time>2015-09-06T10:01:55Z</time>
      </trkpt>
      <trkpt lat="44.42962" lon="4.7984">
        <ele>175</ele>
        <time>2015-09-06T10:01:59Z</time>
      </trkpt>
      <trkpt lat="44.42961" lon="4.79838">
        <ele>175</ele>
        <time>2015-09-06T10:02:09Z</time>
      </trkpt>
      <trkpt lat="44.42961" lon="4.79839">
        <ele>179</ele>
        <time>2015-09-06T10:02:12Z</time>
      </trkpt>
      <trkpt lat="44.4296" lon="4.79837">
        <ele>177</ele>
        <time>2015-09-06T10:02:19Z</time>
      </trkpt>
      <trkpt lat="44.4296" lon="4.79837">
        <ele>177</ele>
        <time>2015-09-06T10:02:21Z</time>
      </trkpt>
      <trkpt lat="44.4296" lon="4.79837">
        <ele>178</ele>
        <time>2015-09-06T10:02:24Z</time>
      </trkpt>
      <trkpt lat="44.42961" lon="4.79838">
        <ele>173</ele>
        <time>2015-09-06T10:02:27Z</time>
      </trkpt>
      <trkpt lat="44.42961" lon="4.79838">
        <ele>177</ele>
        <time>2015-09-06T10:02:31Z</time>
      </trkpt>
      <trkpt lat="44.42961" lon="4.79838">
        <ele>178</ele>
        <time>2015-09-06T10:02:33Z</time>
      </trkpt>
      <trkpt lat="44.42961" lon="4.79838">
        <ele>175</ele>
        <time>2015-09-06T10:02:37Z</time>
      </trkpt>
      <trkpt lat="44.42961" lon="4.79838">
        <ele>177</ele>
        <time>2015-09-06T10:02:39Z</time>
      </trkpt>
      <trkpt lat="44.42961" lon="4.79838">
        <ele>178</ele>
        <time>2015-09-06T10:02:43Z</time>
      </trkpt>
      <trkpt lat="44.42961" lon="4.79838">
        <ele>170</ele>
        <time>2015-09-06T10:02:45Z</time>
      </trkpt>
      <trkpt lat="44.42961" lon="4.79838">
        <ele>176</ele>
        <time>2015-09-06T10:02:48Z</time>
      </trkpt>
      <trkpt lat="44.42961" lon="4.79838">
        <ele>178</ele>
        <time>2015-09-06T10:02:51Z</time>
      </trkpt>
      <trkpt lat="44.42961" lon="4.79838">
        <ele>175</ele>
        <time>2015-09-06T10:02:54Z</time>
      </trkpt>
      <trkpt lat="44.42961" lon="4.79838">
        <ele>178</ele>
        <time>2015-09-06T10:02:57Z</time>
      </trkpt>
      <trkpt lat="44.42961" lon="4.79838">
        <ele>178</ele>
        <time>2015-09-06T10:03:01Z</time>
      </trkpt>
      <trkpt lat="44.42961" lon="4.79838">
        <ele>174</ele>
        <time>2015-09-06T10:03:03Z</time>
      </trkpt>
      <trkpt lat="44.42961" lon="4.79838">
        <ele>176</ele>
        <time>2015-09-06T10:03:06Z</time>
      </trkpt>
      <trkpt lat="44.42961" lon="4.79838">
        <ele>178</ele>
        <time>2015-09-06T10:03:09Z</time>
      </trkpt>
      <trkpt lat="44.42961" lon="4.79838">
        <ele>178</ele>
        <time>2015-09-06T10:03:12Z</time>
      </trkpt>
      <trkpt lat="44.42961" lon="4.79838">
        <ele>170</ele>
        <time>2015-09-06T10:03:15Z</time>
      </trkpt>
      <trkpt lat="44.42961" lon="4.79838">
        <ele>177</ele>
        <time>2015-09-06T10:03:18Z</time>
      </trkpt>
      <trkpt lat="44.42961" lon="4.79838">
        <ele>178</ele>
        <time>2015-09-06T10:03:21Z</time>
      </trkpt>
      <trkpt lat="44.42961" lon="4.79838">
        <ele>179</ele>
        <time>2015-09-06T10:03:24Z</time>
      </trkpt>
      <trkpt lat="44.42961" lon="4.79838">
        <ele>170</ele>
        <time>2015-09-06T10:03:27Z</time>
      </trkpt>
      <trkpt lat="44.42961" lon="4.79838">
        <ele>177</ele>
        <time>2015-09-06T10:03:30Z</time>
      </trkpt>
      <trkpt lat="44.42961" lon="4.79838">
        <ele>178</ele>
        <time>2015-09-06T10:03:33Z</time>
      </trkpt>
      <trkpt lat="44.42961" lon="4.79838">
        <ele>176</ele>
        <time>2015-09-06T10:03:36Z</time>
      </trkpt>
      <trkpt lat="44.42961" lon="4.79838">
        <ele>178</ele>
        <time>2015-09-06T10:03:39Z</time>
      </trkpt>
      <trkpt lat="44.42961" lon="4.79838">
        <ele>178</ele>
        <time>2015-09-06T10:03:42Z</time>
      </trkpt>
      <trkpt lat="44.42961" lon="4.79838">
        <ele>171</ele>
        <time>2015-09-06T10:03:45Z</time>
      </trkpt>
      <trkpt lat="44.42961" lon="4.79838">
        <ele>177</ele>
        <time>2015-09-06T10:03:48Z</time>
      </trkpt>
      <trkpt lat="44.42961" lon="4.79838">
        <ele>178</ele>
        <time>2015-09-06T10:03:51Z</time>
      </trkpt>
      <trkpt lat="44.42961" lon="4.79838">
        <ele>179</ele>
        <time>2015-09-06T10:03:54Z</time>
      </trkpt>
      <trkpt lat="44.42961" lon="4.79838">
        <ele>176</ele>
        <time>2015-09-06T10:03:57Z</time>
      </trkpt>
      <trkpt lat="44.42961" lon="4.79838">
        <ele>178</ele>
        <time>2015-09-06T10:04:00Z</time>
      </trkpt>
      <trkpt lat="44.42961" lon="4.79838">
        <ele>178</ele>
        <time>2015-09-06T10:04:03Z</time>
      </trkpt>
      <trkpt lat="44.42962" lon="4.79838">
        <ele>175</ele>
        <time>2015-09-06T10:04:07Z</time>
      </trkpt>
      <trkpt lat="44.42963" lon="4.79838">
        <ele>173</ele>
        <time>2015-09-06T10:04:17Z</time>
      </trkpt>
      <trkpt lat="44.42963" lon="4.79838">
        <ele>176</ele>
        <time>2015-09-06T10:04:20Z</time>
      </trkpt>
      <trkpt lat="44.42963" lon="4.79838">
        <ele>177</ele>
        <time>2015-09-06T10:04:23Z</time>
      </trkpt>
      <trkpt lat="44.42964" lon="4.79839">
        <ele>169</ele>
        <time>2015-09-06T10:04:26Z</time>
      </trkpt>
      <trkpt lat="44.42975" lon="4.79844">
        <ele>175</ele>
        <time>2015-09-06T10:04:42Z</time>
      </trkpt>
      <trkpt lat="44.42977" lon="4.79842">
        <ele>174</ele>
        <time>2015-09-06T10:04:48Z</time>
      </trkpt>
      <trkpt lat="44.42978" lon="4.79843">
        <ele>177</ele>
        <time>2015-09-06T10:05:00Z</time>
      </trkpt>
      <trkpt lat="44.42979" lon="4.79845">
        <ele>177</ele>
        <time>2015-09-06T10:05:02Z</time>
      </trkpt>
      <trkpt lat="44.42985" lon="4.7985">
        <ele>178</ele>
        <time>2015-09-06T10:05:13Z</time>
      </trkpt>
      <trkpt lat="44.42996" lon="4.79852">
        <ele>180</ele>
        <time>2015-09-06T10:05:25Z</time>
      </trkpt>
      <trkpt lat="44.4301" lon="4.79856">
        <ele>180</ele>
        <time>2015-09-06T10:05:38Z</time>
      </trkpt>
      <trkpt lat="44.43019" lon="4.79858">
        <ele>182</ele>
        <time>2015-09-06T10:05:46Z</time>
      </trkpt>
      <trkpt lat="44.4303" lon="4.79865">
        <ele>186</ele>
        <time>2015-09-06T10:05:57Z</time>
      </trkpt>
      <trkpt lat="44.43042" lon="4.79872">
        <ele>185</ele>
        <time>2015-09-06T10:06:11Z</time>
      </trkpt>
      <trkpt lat="44.43049" lon="4.79878">
        <ele>184</ele>
        <time>2015-09-06T10:06:20Z</time>
      </trkpt>
      <trkpt lat="44.43055" lon="4.79885">
        <ele>183</ele>
        <time>2015-09-06T10:06:30Z</time>
      </trkpt>
      <trkpt lat="44.43044" lon="4.79888">
        <ele>177</ele>
        <time>2015-09-06T10:06:47Z</time>
      </trkpt>
      <trkpt lat="44.43039" lon="4.79887">
        <ele>174</ele>
        <time>2015-09-06T10:06:53Z</time>
      </trkpt>
      <trkpt lat="44.4303" lon="4.79886">
        <ele>172</ele>
        <time>2015-09-06T10:07:03Z</time>
      </trkpt>
      <trkpt lat="44.43022" lon="4.7988">
        <ele>171</ele>
        <time>2015-09-06T10:07:14Z</time>
      </trkpt>
      <trkpt lat="44.43013" lon="4.79878">
        <ele>169</ele>
        <time>2015-09-06T10:07:25Z</time>
      </trkpt>
      <trkpt lat="44.43002" lon="4.79876">
        <ele>169</ele>
        <time>2015-09-06T10:07:36Z</time>
      </trkpt>
      <trkpt lat="44.42984" lon="4.79877">
        <ele>170</ele>
        <time>2015-09-06T10:07:53Z</time>
      </trkpt>
      <trkpt lat="44.42981" lon="4.79878">
        <ele>168</ele>
        <time>2015-09-06T10:07:59Z</time>
      </trkpt>
      <trkpt lat="44.42981" lon="4.79878">
        <ele>169</ele>
        <time>2015-09-06T10:08:09Z</time>
      </trkpt>
      <trkpt lat="44.42982" lon="4.79878">
        <ele>168</ele>
        <time>2015-09-06T10:08:13Z</time>
      </trkpt>
      <trkpt lat="44.42982" lon="4.79878">
        <ele>168</ele>
        <time>2015-09-06T10:08:15Z</time>
      </trkpt>
      <trkpt lat="44.42983" lon="4.79879">
        <ele>169</ele>
        <time>2015-09-06T10:08:18Z</time>
      </trkpt>
      <trkpt lat="44.43003" lon="4.7989">
        <ele>168</ele>
        <time>2015-09-06T10:08:35Z</time>
      </trkpt>
      <trkpt lat="44.43001" lon="4.79896">
        <ele>166</ele>
        <time>2015-09-06T10:08:48Z</time>
      </trkpt>
      <trkpt lat="44.43" lon="4.79898">
        <ele>166</ele>
        <time>2015-09-06T10:08:52Z</time>
      </trkpt>
      <trkpt lat="44.43003" lon="4.79903">
        <ele>167</ele>
        <time>2015-09-06T10:09:02Z</time>
      </trkpt>
      <trkpt lat="44.43007" lon="4.79908">
        <ele>166</ele>
        <time>2015-09-06T10:09:13Z</time>
      </trkpt>
      <trkpt lat="44.43008" lon="4.79909">
        <ele>167</ele>
        <time>2015-09-06T10:09:24Z</time>
      </trkpt>
      <trkpt lat="44.43008" lon="4.79909">
        <ele>167</ele>
        <time>2015-09-06T10:09:27Z</time>
      </trkpt>
      <trkpt lat="44.43008" lon="4.79909">
        <ele>168</ele>
        <time>2015-09-06T10:09:30Z</time>
      </trkpt>
      <trkpt lat="44.4301" lon="4.79911">
        <ele>168</ele>
        <time>2015-09-06T10:09:35Z</time>
      </trkpt>
      <trkpt lat="44.43015" lon="4.79912">
        <ele>166</ele>
        <time>2015-09-06T10:09:44Z</time>
      </trkpt>
      <trkpt lat="44.43016" lon="4.79912">
        <ele>166</ele>
        <time>2015-09-06T10:09:55Z</time>
      </trkpt>
      <trkpt lat="44.43016" lon="4.79912">
        <ele>166</ele>
        <time>2015-09-06T10:10:00Z</time>
      </trkpt>
      <trkpt lat="44.43016" lon="4.79912">
        <ele>166</ele>
        <time>2015-09-06T10:10:01Z</time>
      </trkpt>
      <trkpt lat="44.43018" lon="4.79913">
        <ele>165</ele>
        <time>2015-09-06T10:10:04Z</time>
      </trkpt>
      <trkpt lat="44.43032" lon="4.79921">
        <ele>166</ele>
        <time>2015-09-06T10:10:15Z</time>
      </trkpt>
      <trkpt lat="44.43048" lon="4.7995">
        <ele>168</ele>
        <time>2015-09-06T10:10:36Z</time>
      </trkpt>
      <trkpt lat="44.43049" lon="4.79951">
        <ele>167</ele>
        <time>2015-09-06T10:10:37Z</time>
      </trkpt>
      <trkpt lat="44.43044" lon="4.79962">
        <ele>168</ele>
        <time>2015-09-06T10:10:54Z</time>
      </trkpt>
      <trkpt lat="44.43044" lon="4.79964">
        <ele>165</ele>
        <time>2015-09-06T10:11:00Z</time>
      </trkpt>
      <trkpt lat="44.43044" lon="4.79964">
        <ele>165</ele>
        <time>2015-09-06T10:11:02Z</time>
      </trkpt>
      <trkpt lat="44.43044" lon="4.79965">
        <ele>165</ele>
        <time>2015-09-06T10:11:05Z</time>
      </trkpt>
      <trkpt lat="44.43044" lon="4.79965">
        <ele>165</ele>
        <time>2015-09-06T10:11:08Z</time>
      </trkpt>
      <trkpt lat="44.43044" lon="4.79965">
        <ele>165</ele>
        <time>2015-09-06T10:11:11Z</time>
      </trkpt>
      <trkpt lat="44.43044" lon="4.79965">
        <ele>165</ele>
        <time>2015-09-06T10:11:15Z</time>
      </trkpt>
      <trkpt lat="44.43044" lon="4.79965">
        <ele>165</ele>
        <time>2015-09-06T10:11:19Z</time>
      </trkpt>
      <trkpt lat="44.43044" lon="4.79965">
        <ele>165</ele>
        <time>2015-09-06T10:11:20Z</time>
      </trkpt>
      <trkpt lat="44.43044" lon="4.79965">
        <ele>165</ele>
        <time>2015-09-06T10:11:23Z</time>
      </trkpt>
      <trkpt lat="44.43042" lon="4.79967">
        <ele>161</ele>
        <time>2015-09-06T10:11:26Z</time>
      </trkpt>
      <trkpt lat="44.43032" lon="4.79995">
        <ele>149</ele>
        <time>2015-09-06T10:11:46Z</time>
      </trkpt>
      <trkpt lat="44.43032" lon="4.79996">
        <ele>148</ele>
        <time>2015-09-06T10:11:48Z</time>
      </trkpt>
      <trkpt lat="44.43028" lon="4.80009">
        <ele>149</ele>
        <time>2015-09-06T10:12:01Z</time>
      </trkpt>
      <trkpt lat="44.43025" lon="4.80028">
        <ele>150</ele>
        <time>2015-09-06T10:12:16Z</time>
      </trkpt>
      <trkpt lat="44.43026" lon="4.80034">
        <ele>151</ele>
        <time>2015-09-06T10:12:21Z</time>
      </trkpt>
      <trkpt lat="44.43027" lon="4.8005">
        <ele>152</ele>
        <time>2015-09-06T10:12:32Z</time>
      </trkpt>
      <trkpt lat="44.43027" lon="4.80063">
        <ele>150</ele>
        <time>2015-09-06T10:12:43Z</time>
      </trkpt>
      <trkpt lat="44.43025" lon="4.80075">
        <ele>145</ele>
        <time>2015-09-06T10:12:54Z</time>
      </trkpt>
      <trkpt lat="44.4302" lon="4.80105">
        <ele>144</ele>
        <time>2015-09-06T10:13:15Z</time>
      </trkpt>
      <trkpt lat="44.43018" lon="4.80112">
        <ele>143</ele>
        <time>2015-09-06T10:13:20Z</time>
      </trkpt>
      <trkpt lat="44.43015" lon="4.8012">
        <ele>142</ele>
        <time>2015-09-06T10:13:27Z</time>
      </trkpt>
      <trkpt lat="44.43012" lon="4.80117">
        <ele>141</ele>
        <time>2015-09-06T10:13:38Z</time>
      </trkpt>
      <trkpt lat="44.43007" lon="4.80109">
        <ele>140</ele>
        <time>2015-09-06T10:13:49Z</time>
      </trkpt>
      <trkpt lat="44.43" lon="4.80095">
        <ele>141</ele>
        <time>2015-09-06T10:14:03Z</time>
      </trkpt>
      <trkpt lat="44.42997" lon="4.80085">
        <ele>139</ele>
        <time>2015-09-06T10:14:11Z</time>
      </trkpt>
      <trkpt lat="44.42991" lon="4.80058">
        <ele>136</ele>
        <time>2015-09-06T10:14:29Z</time>
      </trkpt>
      <trkpt lat="44.42988" lon="4.8005">
        <ele>134</ele>
        <time>2015-09-06T10:14:35Z</time>
      </trkpt>
      <trkpt lat="44.42989" lon="4.80064">
        <ele>137</ele>
        <time>2015-09-06T10:14:54Z</time>
      </trkpt>
      <trkpt lat="44.42989" lon="4.80065">
        <ele>136</ele>
        <time>2015-09-06T10:14:55Z</time>
      </trkpt>
      <trkpt lat="44.42995" lon="4.80086">
        <ele>136</ele>
        <time>2015-09-06T10:15:12Z</time>
      </trkpt>
      <trkpt lat="44.42997" lon="4.80095">
        <ele>139</ele>
        <time>2015-09-06T10:15:19Z</time>
      </trkpt>
      <trkpt lat="44.43002" lon="4.80115">
        <ele>140</ele>
        <time>2015-09-06T10:15:34Z</time>
      </trkpt>
      <trkpt lat="44.43001" lon="4.80121">
        <ele>138</ele>
        <time>2015-09-06T10:15:39Z</time>
      </trkpt>
      <trkpt lat="44.4298" lon="4.80112">
        <ele>130</ele>
        <time>2015-09-06T10:15:54Z</time>
      </trkpt>
      <trkpt lat="44.42974" lon="4.80107">
        <ele>133</ele>
        <time>2015-09-06T10:16:01Z</time>
      </trkpt>
      <trkpt lat="44.42963" lon="4.801">
        <ele>130</ele>
        <time>2015-09-06T10:16:13Z</time>
      </trkpt>
      <trkpt lat="44.4295" lon="4.80094">
        <ele>126</ele>
        <time>2015-09-06T10:16:26Z</time>
      </trkpt>
      <trkpt lat="44.42942" lon="4.80094">
        <ele>123</ele>
        <time>2015-09-06T10:16:35Z</time>
      </trkpt>
      <trkpt lat="44.42943" lon="4.80094">
        <ele>123</ele>
        <time>2015-09-06T10:16:45Z</time>
      </trkpt>
      <trkpt lat="44.42942" lon="4.80094">
        <ele>125</ele>
        <time>2015-09-06T10:16:51Z</time>
      </trkpt>
    </trkseg>
  </trk>
</gpx>